CKK236 EDDF-ZUCK
Flight info
| Callsign | CKK236 |
|---|---|
| Flight time | 9h 16m |
| Altitude | 29000 |
| Route | TOBAK2S TOBAK N858 FEDZA Y172 ETIDI DCT MAG DCT BODLA DCT KUNER/K0895F310 DCT RONUN/N0484F310 DCT GARSO M990 VALGA DCT TITOV DCT PIRUS/K0895F310 DCT TUNOB M61 SUMOM P983 LEGBI/K0889F330 P983 AMRAD A816 AKTAS R366 NOPUS/K0883S1010 Y478 MORIT B330 NOLOM/K0882S1040 B330 IPDAT/K0887S1010 B330 JELAN/K0889S1070 B330 OVRAL DCT GYN DCT VIPAG/K0896S1040 W666 VINEX VINXE1 |
| Aircraft | B77L/H-SDE1E2E3FGHIJ2J3J4J5M1RWXY/LB1D1 |
Departure
| Time | 2026-05-07 11:09 |
|---|---|
| Airport | Frankfurt Main Airport (EDDF) |
Arrival
| Time | 2026-05-07 20:26 |
|---|---|
| Airport | Chongqing Jiangbei International Airport (ZUCK) |
| Time | Latitude | Longitude | Altitude | Speed | Heading |
|---|---|---|---|---|---|
| 2026-05-07 10:13 | 50.02805 | 8.56951 | 355 ft | 0 kts | 250° |
| 2026-05-07 10:49 | 50.02809 | 8.56968 | 364 ft | 4 kts | 250° |
| 2026-05-07 10:49 | 50.02818 | 8.57007 | 362 ft | 4 kts | 249° |
| 2026-05-07 10:49 | 50.02826 | 8.57039 | 361 ft | 4 kts | 261° |
| 2026-05-07 10:49 | 50.02823 | 8.57077 | 361 ft | 4 kts | 305° |
| 2026-05-07 10:50 | 50.02804 | 8.57101 | 365 ft | 3 kts | 340° |
| 2026-05-07 10:50 | 50.02817 | 8.57094 | 365 ft | 4 kts | 340° |
| 2026-05-07 10:50 | 50.02842 | 8.57080 | 365 ft | 4 kts | 340° |
| 2026-05-07 10:50 | 50.02867 | 8.57065 | 364 ft | 4 kts | 340° |
| 2026-05-07 10:51 | 50.02892 | 8.57051 | 361 ft | 4 kts | 340° |
| 2026-05-07 10:51 | 50.02916 | 8.57038 | 359 ft | 2 kts | 340° |
| 2026-05-07 10:51 | 50.02917 | 8.57037 | 361 ft | 0 kts | 340° |
| 2026-05-07 10:53 | 50.02924 | 8.57033 | 356 ft | 4 kts | 340° |
| 2026-05-07 10:53 | 50.02973 | 8.57005 | 362 ft | 8 kts | 340° |
| 2026-05-07 10:54 | 50.03027 | 8.56973 | 363 ft | 8 kts | 339° |
| 2026-05-07 10:54 | 50.03080 | 8.56942 | 363 ft | 8 kts | 339° |
| 2026-05-07 10:54 | 50.03134 | 8.56911 | 361 ft | 8 kts | 339° |
| 2026-05-07 10:54 | 50.03186 | 8.56881 | 364 ft | 5 kts | 339° |
| 2026-05-07 10:55 | 50.03195 | 8.56876 | 362 ft | 0 kts | 339° |
| 2026-05-07 11:01 | 50.03241 | 8.56851 | 366 ft | 10 kts | 346° |
| 2026-05-07 11:02 | 50.03298 | 8.56889 | 361 ft | 10 kts | 60° |
| 2026-05-07 11:02 | 50.03323 | 8.56988 | 363 ft | 10 kts | 70° |
| 2026-05-07 11:02 | 50.03338 | 8.57054 | 360 ft | 10 kts | 70° |
| 2026-05-07 11:02 | 50.03362 | 8.57153 | 363 ft | 10 kts | 70° |
| 2026-05-07 11:03 | 50.03386 | 8.57253 | 362 ft | 10 kts | 70° |
| 2026-05-07 11:03 | 50.03409 | 8.57353 | 362 ft | 10 kts | 70° |
| 2026-05-07 11:03 | 50.03433 | 8.57451 | 366 ft | 10 kts | 70° |
| 2026-05-07 11:03 | 50.03456 | 8.57552 | 363 ft | 10 kts | 70° |
| 2026-05-07 11:04 | 50.03480 | 8.57650 | 363 ft | 10 kts | 70° |
| 2026-05-07 11:04 | 50.03503 | 8.57749 | 364 ft | 10 kts | 70° |
| 2026-05-07 11:04 | 50.03527 | 8.57848 | 367 ft | 10 kts | 70° |
| 2026-05-07 11:04 | 50.03551 | 8.57948 | 367 ft | 10 kts | 70° |
| 2026-05-07 11:05 | 50.03575 | 8.58047 | 366 ft | 10 kts | 68° |
| 2026-05-07 11:05 | 50.03599 | 8.58146 | 369 ft | 10 kts | 69° |
| 2026-05-07 11:05 | 50.03624 | 8.58245 | 368 ft | 10 kts | 69° |
| 2026-05-07 11:05 | 50.03648 | 8.58344 | 369 ft | 10 kts | 69° |
| 2026-05-07 11:06 | 50.03671 | 8.58444 | 367 ft | 10 kts | 70° |
| 2026-05-07 11:06 | 50.03694 | 8.58544 | 369 ft | 10 kts | 70° |
| 2026-05-07 11:06 | 50.03717 | 8.58643 | 370 ft | 10 kts | 70° |
| 2026-05-07 11:06 | 50.03754 | 8.58728 | 368 ft | 10 kts | 27° |
| 2026-05-07 11:07 | 50.03820 | 8.58717 | 371 ft | 10 kts | 341° |
| 2026-05-07 11:07 | 50.03885 | 8.58682 | 374 ft | 10 kts | 340° |
| 2026-05-07 11:07 | 50.03948 | 8.58647 | 378 ft | 10 kts | 340° |
| 2026-05-07 11:07 | 50.03989 | 8.58594 | 378 ft | 5 kts | 280° |
| 2026-05-07 11:08 | 50.03986 | 8.58571 | 375 ft | 0 kts | 255° |
| 2026-05-07 11:08 | 50.03929 | 8.58329 | 373 ft | 58 kts | 249° |
| 2026-05-07 11:08 | 50.03696 | 8.57362 | 362 ft | 132 kts | 250° |
| 2026-05-07 11:09 | 50.03296 | 8.55683 | 365 ft | 194 kts | 250° |
| 2026-05-07 11:09 | 50.02818 | 8.53675 | 944 ft | 193 kts | 250° |
| 2026-05-07 11:09 | 50.02369 | 8.51729 | 1795 ft | 190 kts | 257° |
| 2026-05-07 11:09 | 50.02210 | 8.49681 | 2280 ft | 194 kts | 278° |
| 2026-05-07 11:10 | 50.02461 | 8.47605 | 2618 ft | 200 kts | 285° |
| 2026-05-07 11:10 | 50.02794 | 8.45512 | 3076 ft | 200 kts | 285° |
| 2026-05-07 11:10 | 50.03129 | 8.43332 | 3385 ft | 213 kts | 289° |
| 2026-05-07 11:10 | 50.03938 | 8.41398 | 3609 ft | 223 kts | 321° |
| 2026-05-07 11:11 | 50.05229 | 8.39917 | 3845 ft | 237 kts | 323° |
| 2026-05-07 11:11 | 50.06587 | 8.38301 | 4180 ft | 252 kts | 322° |
| 2026-05-07 11:11 | 50.07999 | 8.36608 | 4749 ft | 259 kts | 322° |
| 2026-05-07 11:11 | 50.09441 | 8.34887 | 5398 ft | 263 kts | 322° |
| 2026-05-07 11:12 | 50.10956 | 8.33276 | 6005 ft | 265 kts | 337° |
| 2026-05-07 11:12 | 50.12775 | 8.32864 | 6553 ft | 269 kts | 7° |
| 2026-05-07 11:12 | 50.14590 | 8.33599 | 7122 ft | 272 kts | 15° |
| 2026-05-07 11:12 | 50.16422 | 8.34475 | 7674 ft | 276 kts | 15° |
| 2026-05-07 11:13 | 50.18249 | 8.35343 | 8337 ft | 278 kts | 15° |
| 2026-05-07 11:13 | 50.20117 | 8.36235 | 8986 ft | 282 kts | 15° |
| 2026-05-07 11:13 | 50.22002 | 8.37135 | 9623 ft | 285 kts | 15° |
| 2026-05-07 11:13 | 50.23907 | 8.38040 | 10230 ft | 288 kts | 15° |
| 2026-05-07 11:14 | 50.25872 | 8.38972 | 10491 ft | 305 kts | 15° |
| 2026-05-07 11:14 | 50.27963 | 8.39965 | 10649 ft | 323 kts | 16° |
| 2026-05-07 11:14 | 50.30031 | 8.41516 | 10727 ft | 340 kts | 37° |
| 2026-05-07 11:14 | 50.31814 | 8.44064 | 10870 ft | 356 kts | 42° |
| 2026-05-07 11:15 | 50.33658 | 8.46746 | 11256 ft | 367 kts | 40° |
| 2026-05-07 11:15 | 50.35576 | 8.49458 | 11817 ft | 374 kts | 40° |
| 2026-05-07 11:15 | 50.37532 | 8.52194 | 12468 ft | 378 kts | 40° |
| 2026-05-07 11:15 | 50.39489 | 8.54918 | 13128 ft | 382 kts | 40° |
| 2026-05-07 11:16 | 50.41488 | 8.57700 | 13775 ft | 386 kts | 40° |
| 2026-05-07 11:16 | 50.43518 | 8.60525 | 14366 ft | 390 kts | 40° |
| 2026-05-07 11:16 | 50.45563 | 8.63353 | 14977 ft | 393 kts | 39° |
| 2026-05-07 11:16 | 50.47669 | 8.66128 | 15593 ft | 396 kts | 38° |
| 2026-05-07 11:17 | 50.49810 | 8.68900 | 16188 ft | 399 kts | 38° |
| 2026-05-07 11:17 | 50.51931 | 8.71658 | 16766 ft | 402 kts | 38° |
| 2026-05-07 11:17 | 50.54087 | 8.74487 | 17329 ft | 406 kts | 39° |
| 2026-05-07 11:17 | 50.56255 | 8.77355 | 17948 ft | 405 kts | 40° |
| 2026-05-07 11:18 | 50.58143 | 8.80672 | 18329 ft | 410 kts | 58° |
| 2026-05-07 11:18 | 50.59495 | 8.84664 | 18629 ft | 417 kts | 62° |
| 2026-05-07 11:18 | 50.60822 | 8.88762 | 19094 ft | 419 kts | 62° |
| 2026-05-07 11:18 | 50.62175 | 8.92836 | 19672 ft | 420 kts | 61° |
| 2026-05-07 11:19 | 50.63557 | 8.96908 | 20172 ft | 423 kts | 61° |
| 2026-05-07 11:19 | 50.64943 | 9.00949 | 20613 ft | 427 kts | 60° |
| 2026-05-07 11:19 | 50.66370 | 9.05087 | 21064 ft | 430 kts | 61° |
| 2026-05-07 11:19 | 50.67813 | 9.09273 | 21527 ft | 433 kts | 61° |
| 2026-05-07 11:20 | 50.69241 | 9.13422 | 22000 ft | 436 kts | 61° |
| 2026-05-07 11:20 | 50.70691 | 9.17648 | 22484 ft | 439 kts | 61° |
| 2026-05-07 11:20 | 50.72148 | 9.21916 | 22945 ft | 443 kts | 62° |
| 2026-05-07 11:20 | 50.73556 | 9.26264 | 23397 ft | 446 kts | 63° |
| 2026-05-07 11:21 | 50.74940 | 9.30691 | 23793 ft | 449 kts | 63° |
| 2026-05-07 11:21 | 50.76315 | 9.35132 | 24208 ft | 451 kts | 64° |
| 2026-05-07 11:21 | 50.77687 | 9.39558 | 24630 ft | 453 kts | 64° |
| 2026-05-07 11:21 | 50.79075 | 9.44014 | 25184 ft | 450 kts | 64° |
| 2026-05-07 11:22 | 50.80461 | 9.48457 | 25623 ft | 451 kts | 64° |
| 2026-05-07 11:22 | 50.81856 | 9.52924 | 25907 ft | 456 kts | 64° |
| 2026-05-07 11:22 | 50.83264 | 9.57436 | 26272 ft | 458 kts | 64° |
| 2026-05-07 11:22 | 50.84678 | 9.61975 | 26653 ft | 460 kts | 64° |
| 2026-05-07 11:23 | 50.86096 | 9.66533 | 27073 ft | 461 kts | 64° |
| 2026-05-07 11:23 | 50.87513 | 9.71101 | 27448 ft | 463 kts | 65° |
| 2026-05-07 11:23 | 50.88918 | 9.75632 | 27815 ft | 464 kts | 64° |
| 2026-05-07 11:23 | 50.90345 | 9.80241 | 28095 ft | 467 kts | 65° |
| 2026-05-07 11:24 | 50.91778 | 9.84872 | 28453 ft | 469 kts | 64° |
| 2026-05-07 11:24 | 50.93220 | 9.89540 | 28776 ft | 471 kts | 65° |
| 2026-05-07 11:24 | 50.94665 | 9.94228 | 28953 ft | 475 kts | 65° |
| 2026-05-07 11:24 | 50.96112 | 9.98945 | 29033 ft | 476 kts | 65° |
| 2026-05-07 11:25 | 50.98972 | 10.08367 | 29016 ft | 471 kts | 65° |
| 2026-05-07 11:25 | 51.01786 | 10.17691 | 29001 ft | 471 kts | 65° |
| 2026-05-07 11:26 | 51.04620 | 10.27097 | 28980 ft | 472 kts | 65° |
| 2026-05-07 11:26 | 51.07999 | 10.36029 | 29013 ft | 473 kts | 51° |
| 2026-05-07 11:27 | 51.12881 | 10.43014 | 29005 ft | 476 kts | 32° |
| 2026-05-07 11:27 | 51.18736 | 10.48043 | 29008 ft | 479 kts | 30° |
| 2026-05-07 11:28 | 51.24463 | 10.53501 | 29009 ft | 478 kts | 34° |
| 2026-05-07 11:28 | 51.29896 | 10.59316 | 29011 ft | 469 kts | 36° |
| 2026-05-07 11:29 | 51.35329 | 10.65170 | 28985 ft | 472 kts | 36° |
| 2026-05-07 11:29 | 51.40331 | 10.71987 | 28985 ft | 472 kts | 48° |
| 2026-05-07 11:30 | 51.44674 | 10.79792 | 29010 ft | 472 kts | 50° |
| 2026-05-07 11:30 | 51.49041 | 10.87676 | 28989 ft | 472 kts | 49° |
| 2026-05-07 11:31 | 51.53427 | 10.95549 | 28994 ft | 472 kts | 49° |
| 2026-05-07 11:31 | 51.57834 | 11.03448 | 29023 ft | 475 kts | 50° |
| 2026-05-07 11:32 | 51.64439 | 11.15331 | 29016 ft | 479 kts | 50° |
| 2026-05-07 11:33 | 51.68894 | 11.23380 | 29015 ft | 476 kts | 50° |
| 2026-05-07 11:33 | 51.73246 | 11.31267 | 29025 ft | 473 kts | 49° |
| 2026-05-07 11:34 | 51.77649 | 11.39277 | 29028 ft | 481 kts | 50° |
| 2026-05-07 11:34 | 51.82097 | 11.47393 | 29019 ft | 481 kts | 50° |
| 2026-05-07 11:35 | 51.86530 | 11.55505 | 29030 ft | 480 kts | 50° |
| 2026-05-07 11:35 | 51.90946 | 11.63613 | 29017 ft | 478 kts | 50° |
| 2026-05-07 11:36 | 51.95338 | 11.71705 | 29011 ft | 477 kts | 50° |
| 2026-05-07 11:36 | 51.99695 | 11.79757 | 29026 ft | 478 kts | 50° |
| 2026-05-07 11:37 | 52.04011 | 11.88032 | 29018 ft | 478 kts | 51° |
| 2026-05-07 11:37 | 52.08244 | 11.96354 | 29020 ft | 479 kts | 51° |
| 2026-05-07 11:38 | 52.12488 | 12.04706 | 29017 ft | 479 kts | 51° |
| 2026-05-07 11:38 | 52.16747 | 12.13079 | 29011 ft | 479 kts | 51° |
| 2026-05-07 11:39 | 52.20967 | 12.21387 | 29019 ft | 479 kts | 52° |
| 2026-05-07 11:39 | 52.25217 | 12.29782 | 29026 ft | 479 kts | 52° |
| 2026-05-07 11:40 | 52.29456 | 12.38185 | 29005 ft | 480 kts | 52° |
| 2026-05-07 11:40 | 52.33699 | 12.46624 | 29012 ft | 479 kts | 52° |
| 2026-05-07 11:41 | 52.37905 | 12.55019 | 29014 ft | 479 kts | 51° |
| 2026-05-07 11:41 | 52.42139 | 12.63494 | 29015 ft | 479 kts | 52° |
| 2026-05-07 11:42 | 52.46359 | 12.71972 | 29019 ft | 480 kts | 52° |
| 2026-05-07 11:42 | 52.50559 | 12.80440 | 29022 ft | 480 kts | 52° |
| 2026-05-07 11:43 | 52.54768 | 12.88951 | 29020 ft | 480 kts | 52° |
| 2026-05-07 11:43 | 52.58275 | 12.96064 | 29015 ft | 481 kts | 52° |
| 2026-05-07 11:44 | 52.63183 | 13.06058 | 29026 ft | 483 kts | 52° |
| 2026-05-07 11:44 | 52.66717 | 13.13278 | 29019 ft | 484 kts | 52° |
| 2026-05-07 11:45 | 52.70907 | 13.21863 | 29027 ft | 483 kts | 52° |
| 2026-05-07 11:45 | 52.75115 | 13.30513 | 29018 ft | 482 kts | 52° |
| 2026-05-07 11:46 | 52.79302 | 13.39151 | 29024 ft | 481 kts | 52° |
| 2026-05-07 11:46 | 52.83469 | 13.47777 | 29031 ft | 479 kts | 52° |
| 2026-05-07 11:47 | 52.87603 | 13.56365 | 29032 ft | 479 kts | 53° |
| 2026-05-07 11:47 | 52.91754 | 13.65016 | 29030 ft | 479 kts | 52° |
| 2026-05-07 11:48 | 52.95902 | 13.73692 | 29017 ft | 480 kts | 53° |
| 2026-05-07 11:48 | 53.00060 | 13.82419 | 29028 ft | 483 kts | 53° |
| 2026-05-07 11:49 | 53.04247 | 13.91238 | 29047 ft | 490 kts | 53° |
| 2026-05-07 11:49 | 53.08473 | 14.00169 | 29032 ft | 491 kts | 53° |
| 2026-05-07 11:50 | 53.12692 | 14.09117 | 29032 ft | 490 kts | 53° |
| 2026-05-07 11:50 | 53.16869 | 14.18008 | 29022 ft | 490 kts | 53° |
| 2026-05-07 11:51 | 53.21062 | 14.26966 | 29040 ft | 490 kts | 53° |
| 2026-05-07 11:51 | 53.25251 | 14.35944 | 29039 ft | 490 kts | 53° |
| 2026-05-07 11:52 | 53.29522 | 14.44767 | 29110 ft | 494 kts | 50° |
| 2026-05-07 11:52 | 53.31796 | 14.49076 | 29501 ft | 494 kts | 50° |
| 2026-05-07 11:52 | 53.34083 | 14.53347 | 29964 ft | 492 kts | 49° |
| 2026-05-07 11:52 | 53.36381 | 14.57631 | 30207 ft | 494 kts | 49° |
| 2026-05-07 11:53 | 53.38681 | 14.61935 | 30403 ft | 497 kts | 50° |
| 2026-05-07 11:53 | 53.40984 | 14.66270 | 30642 ft | 498 kts | 50° |
| 2026-05-07 11:53 | 53.43287 | 14.70625 | 30909 ft | 499 kts | 50° |
| 2026-05-07 11:54 | 53.47897 | 14.79396 | 31019 ft | 501 kts | 50° |
| 2026-05-07 11:54 | 53.52470 | 14.88137 | 31049 ft | 500 kts | 50° |
| 2026-05-07 11:55 | 53.57054 | 14.96931 | 31048 ft | 499 kts | 50° |
| 2026-05-07 11:55 | 53.61630 | 15.05738 | 31054 ft | 500 kts | 50° |
| 2026-05-07 11:56 | 53.66219 | 15.14602 | 31047 ft | 503 kts | 50° |
| 2026-05-07 11:56 | 53.70820 | 15.23522 | 31051 ft | 503 kts | 50° |
| 2026-05-07 11:57 | 53.75421 | 15.32473 | 31049 ft | 504 kts | 50° |
| 2026-05-07 11:57 | 53.79989 | 15.41390 | 31049 ft | 504 kts | 50° |
| 2026-05-07 11:58 | 53.84581 | 15.50389 | 31046 ft | 504 kts | 50° |
| 2026-05-07 11:58 | 53.89170 | 15.59415 | 31049 ft | 504 kts | 50° |
| 2026-05-07 11:59 | 53.93718 | 15.68393 | 31056 ft | 504 kts | 50° |
| 2026-05-07 11:59 | 53.98283 | 15.77438 | 31052 ft | 504 kts | 50° |
| 2026-05-07 12:00 | 54.02857 | 15.86534 | 31059 ft | 505 kts | 50° |
| 2026-05-07 12:00 | 54.07419 | 15.95641 | 31058 ft | 505 kts | 50° |
| 2026-05-07 12:01 | 54.11973 | 16.04764 | 31053 ft | 506 kts | 50° |
| 2026-05-07 12:01 | 54.16529 | 16.13924 | 31046 ft | 506 kts | 51° |
| 2026-05-07 12:02 | 54.21055 | 16.23061 | 31062 ft | 507 kts | 51° |
| 2026-05-07 12:02 | 54.25615 | 16.32300 | 31055 ft | 509 kts | 51° |
| 2026-05-07 12:03 | 54.30190 | 16.41603 | 31052 ft | 510 kts | 51° |
| 2026-05-07 12:03 | 54.34752 | 16.50916 | 31056 ft | 510 kts | 51° |
| 2026-05-07 12:04 | 54.39280 | 16.60194 | 31063 ft | 510 kts | 51° |
| 2026-05-07 12:04 | 54.43838 | 16.69569 | 31058 ft | 511 kts | 51° |
| 2026-05-07 12:05 | 54.48398 | 16.78984 | 31057 ft | 511 kts | 51° |
| 2026-05-07 12:05 | 54.52919 | 16.88355 | 31042 ft | 512 kts | 51° |
| 2026-05-07 12:06 | 54.57476 | 16.97837 | 31050 ft | 514 kts | 51° |
| 2026-05-07 12:06 | 54.62028 | 17.07345 | 31060 ft | 515 kts | 51° |
| 2026-05-07 12:07 | 54.66587 | 17.16904 | 31059 ft | 516 kts | 51° |
| 2026-05-07 12:07 | 54.71147 | 17.26501 | 31068 ft | 517 kts | 51° |
| 2026-05-07 12:08 | 54.75705 | 17.36134 | 31067 ft | 517 kts | 51° |
| 2026-05-07 12:08 | 54.80260 | 17.45798 | 31062 ft | 516 kts | 51° |
| 2026-05-07 12:09 | 54.84791 | 17.55449 | 31060 ft | 515 kts | 51° |
| 2026-05-07 12:09 | 54.89309 | 17.65111 | 31067 ft | 515 kts | 51° |
| 2026-05-07 12:10 | 54.93805 | 17.74764 | 31066 ft | 517 kts | 51° |
| 2026-05-07 12:10 | 54.98358 | 17.84578 | 31066 ft | 519 kts | 51° |
| 2026-05-07 12:11 | 55.02900 | 17.94407 | 31045 ft | 522 kts | 52° |
| 2026-05-07 12:11 | 55.07442 | 18.04274 | 31048 ft | 521 kts | 52° |
| 2026-05-07 12:12 | 55.11937 | 18.14079 | 31061 ft | 519 kts | 52° |
| 2026-05-07 12:12 | 55.16445 | 18.23955 | 31052 ft | 518 kts | 52° |
| 2026-05-07 12:13 | 55.20931 | 18.33821 | 31066 ft | 517 kts | 52° |
| 2026-05-07 12:13 | 55.25408 | 18.43687 | 31047 ft | 517 kts | 51° |
| 2026-05-07 12:14 | 55.30320 | 18.52916 | 31027 ft | 517 kts | 45° |
| 2026-05-07 12:14 | 55.35452 | 18.61934 | 31057 ft | 526 kts | 45° |
| 2026-05-07 12:15 | 55.40587 | 18.71061 | 31074 ft | 528 kts | 45° |
| 2026-05-07 12:15 | 55.45717 | 18.80300 | 31041 ft | 527 kts | 45° |
| 2026-05-07 12:16 | 55.50817 | 18.89542 | 31040 ft | 524 kts | 45° |
| 2026-05-07 12:16 | 55.55903 | 18.98789 | 31039 ft | 522 kts | 45° |
| 2026-05-07 12:17 | 55.60959 | 19.08012 | 31040 ft | 521 kts | 45° |
| 2026-05-07 12:17 | 55.65964 | 19.17179 | 31042 ft | 521 kts | 45° |
| 2026-05-07 12:18 | 55.71004 | 19.26446 | 31039 ft | 522 kts | 45° |
| 2026-05-07 12:18 | 55.76044 | 19.35746 | 31037 ft | 523 kts | 46° |
| 2026-05-07 12:19 | 55.81089 | 19.45098 | 31044 ft | 524 kts | 46° |
| 2026-05-07 12:19 | 55.86135 | 19.54492 | 31012 ft | 525 kts | 45° |
| 2026-05-07 12:20 | 55.91168 | 19.63897 | 31033 ft | 526 kts | 45° |
| 2026-05-07 12:20 | 55.96227 | 19.73390 | 31039 ft | 528 kts | 46° |
| 2026-05-07 12:21 | 56.01286 | 19.82923 | 31035 ft | 529 kts | 46° |
| 2026-05-07 12:21 | 56.06350 | 19.92505 | 31048 ft | 530 kts | 46° |
| 2026-05-07 12:22 | 56.11382 | 20.02060 | 31031 ft | 530 kts | 46° |
| 2026-05-07 12:22 | 56.16195 | 20.12107 | 31015 ft | 529 kts | 55° |
| 2026-05-07 12:23 | 56.20250 | 20.23104 | 31027 ft | 528 kts | 57° |
| 2026-05-07 12:23 | 56.24235 | 20.34095 | 31022 ft | 527 kts | 57° |
| 2026-05-07 12:24 | 56.28282 | 20.45138 | 31030 ft | 528 kts | 57° |
| 2026-05-07 12:24 | 56.32336 | 20.56170 | 31014 ft | 528 kts | 57° |
| 2026-05-07 12:25 | 56.36397 | 20.67268 | 31011 ft | 529 kts | 57° |
| 2026-05-07 12:25 | 56.40425 | 20.78339 | 31007 ft | 530 kts | 57° |
| 2026-05-07 12:26 | 56.44466 | 20.89503 | 31022 ft | 531 kts | 57° |
| 2026-05-07 12:26 | 56.48516 | 21.00739 | 31000 ft | 532 kts | 57° |
| 2026-05-07 12:27 | 56.51847 | 21.10136 | 30992 ft | 533 kts | 59° |
| 2026-05-07 12:27 | 56.56077 | 21.23722 | 31023 ft | 532 kts | 62° |
| 2026-05-07 12:28 | 56.59637 | 21.35503 | 30979 ft | 532 kts | 62° |
| 2026-05-07 12:28 | 56.63202 | 21.47252 | 31018 ft | 531 kts | 62° |
| 2026-05-07 12:29 | 56.66204 | 21.57124 | 31006 ft | 532 kts | 62° |
| 2026-05-07 12:29 | 56.69762 | 21.68866 | 31000 ft | 532 kts | 62° |
| 2026-05-07 12:30 | 56.73325 | 21.80693 | 31000 ft | 533 kts | 62° |
| 2026-05-07 12:30 | 56.76878 | 21.92550 | 31002 ft | 533 kts | 62° |
| 2026-05-07 12:31 | 56.80422 | 22.04437 | 31006 ft | 533 kts | 62° |
| 2026-05-07 12:31 | 56.83952 | 22.16341 | 31003 ft | 533 kts | 62° |
| 2026-05-07 12:32 | 56.87448 | 22.28184 | 30993 ft | 533 kts | 62° |
| 2026-05-07 12:32 | 56.90960 | 22.40143 | 31001 ft | 533 kts | 62° |
| 2026-05-07 12:33 | 56.96149 | 22.58118 | 31000 ft | 533 kts | 63° |
| 2026-05-07 12:33 | 56.99612 | 22.70221 | 31014 ft | 534 kts | 63° |
| 2026-05-07 12:34 | 57.03057 | 22.82307 | 31014 ft | 535 kts | 63° |
| 2026-05-07 12:34 | 57.06498 | 22.94433 | 31014 ft | 535 kts | 63° |
| 2026-05-07 12:35 | 57.09902 | 23.06492 | 30976 ft | 535 kts | 63° |
| 2026-05-07 12:35 | 57.13312 | 23.18635 | 31010 ft | 534 kts | 63° |
| 2026-05-07 12:36 | 57.16718 | 23.30832 | 31016 ft | 535 kts | 63° |
| 2026-05-07 12:36 | 57.20117 | 23.43067 | 31002 ft | 535 kts | 63° |
| 2026-05-07 12:37 | 57.23501 | 23.55314 | 30995 ft | 535 kts | 63° |
| 2026-05-07 12:37 | 57.26876 | 23.67593 | 30997 ft | 535 kts | 64° |
| 2026-05-07 12:38 | 57.30233 | 23.79876 | 30990 ft | 535 kts | 64° |
| 2026-05-07 12:38 | 57.33561 | 23.92112 | 31004 ft | 535 kts | 64° |
| 2026-05-07 12:39 | 57.36899 | 24.04459 | 30996 ft | 536 kts | 64° |
| 2026-05-07 12:39 | 57.40231 | 24.16848 | 30989 ft | 536 kts | 64° |
| 2026-05-07 12:40 | 57.43551 | 24.29258 | 30986 ft | 537 kts | 64° |
| 2026-05-07 12:40 | 57.46863 | 24.41711 | 30994 ft | 537 kts | 64° |
| 2026-05-07 12:41 | 57.50164 | 24.54191 | 31001 ft | 538 kts | 64° |
| 2026-05-07 12:41 | 57.53440 | 24.66635 | 31000 ft | 539 kts | 65° |
| 2026-05-07 12:42 | 57.56734 | 24.79216 | 31000 ft | 540 kts | 65° |
| 2026-05-07 12:42 | 57.60024 | 24.91830 | 30993 ft | 540 kts | 65° |
| 2026-05-07 12:43 | 57.63282 | 25.04386 | 30994 ft | 539 kts | 65° |
| 2026-05-07 12:43 | 57.66539 | 25.17015 | 31014 ft | 540 kts | 65° |
| 2026-05-07 12:44 | 57.69792 | 25.29699 | 31001 ft | 540 kts | 65° |
| 2026-05-07 12:44 | 57.73033 | 25.42409 | 31001 ft | 540 kts | 65° |
| 2026-05-07 12:45 | 57.76236 | 25.55043 | 31001 ft | 540 kts | 65° |
| 2026-05-07 12:45 | 57.79450 | 25.67796 | 31005 ft | 541 kts | 65° |
| 2026-05-07 12:46 | 57.82647 | 25.80549 | 31018 ft | 539 kts | 66° |
| 2026-05-07 12:46 | 57.85863 | 25.93298 | 31008 ft | 540 kts | 63° |
| 2026-05-07 12:47 | 57.89527 | 26.05620 | 31008 ft | 540 kts | 59° |
| 2026-05-07 12:47 | 57.93332 | 26.17734 | 31008 ft | 540 kts | 59° |
| 2026-05-07 12:48 | 57.97108 | 26.29974 | 31017 ft | 540 kts | 60° |
| 2026-05-07 12:48 | 58.00824 | 26.42276 | 31022 ft | 541 kts | 61° |
| 2026-05-07 12:49 | 58.04534 | 26.54676 | 31023 ft | 542 kts | 61° |
| 2026-05-07 12:49 | 58.08218 | 26.67037 | 31018 ft | 543 kts | 61° |
| 2026-05-07 12:50 | 58.11929 | 26.79539 | 31014 ft | 542 kts | 61° |
| 2026-05-07 12:50 | 58.15611 | 26.92010 | 31016 ft | 542 kts | 61° |
| 2026-05-07 12:51 | 58.19258 | 27.04426 | 31024 ft | 542 kts | 62° |
| 2026-05-07 12:51 | 58.22920 | 27.16972 | 31021 ft | 542 kts | 62° |
| 2026-05-07 12:52 | 58.26564 | 27.29516 | 31019 ft | 543 kts | 62° |
| 2026-05-07 12:52 | 58.30203 | 27.42104 | 31024 ft | 543 kts | 62° |
| 2026-05-07 12:53 | 58.33326 | 27.55058 | 31022 ft | 541 kts | 72° |
| 2026-05-07 12:53 | 58.35291 | 27.68904 | 31035 ft | 540 kts | 79° |
| 2026-05-07 12:54 | 58.37014 | 27.82760 | 31021 ft | 541 kts | 79° |
| 2026-05-07 12:54 | 58.38772 | 27.96717 | 31023 ft | 542 kts | 79° |
| 2026-05-07 12:55 | 58.40557 | 28.10732 | 31027 ft | 543 kts | 79° |
| 2026-05-07 12:55 | 58.42339 | 28.24775 | 31026 ft | 544 kts | 79° |
| 2026-05-07 12:56 | 58.44096 | 28.38767 | 31020 ft | 544 kts | 79° |
| 2026-05-07 12:56 | 58.45844 | 28.52852 | 31021 ft | 543 kts | 79° |
| 2026-05-07 12:57 | 58.47569 | 28.66892 | 31021 ft | 541 kts | 80° |
| 2026-05-07 12:57 | 58.49260 | 28.80795 | 31023 ft | 540 kts | 80° |
| 2026-05-07 12:58 | 58.50944 | 28.94783 | 31017 ft | 539 kts | 80° |
| 2026-05-07 12:58 | 58.52610 | 29.08761 | 31022 ft | 539 kts | 80° |
| 2026-05-07 12:59 | 58.54260 | 29.22747 | 31021 ft | 539 kts | 81° |
| 2026-05-07 12:59 | 58.55898 | 29.36765 | 31028 ft | 540 kts | 81° |
| 2026-05-07 13:00 | 58.57524 | 29.50837 | 31024 ft | 542 kts | 80° |
| 2026-05-07 13:00 | 58.59132 | 29.64892 | 31022 ft | 543 kts | 81° |
| 2026-05-07 13:01 | 58.60738 | 29.79074 | 31026 ft | 543 kts | 81° |
| 2026-05-07 13:01 | 58.62328 | 29.93261 | 31025 ft | 543 kts | 81° |
| 2026-05-07 13:02 | 58.63901 | 30.07450 | 31021 ft | 543 kts | 81° |
| 2026-05-07 13:02 | 58.65456 | 30.21642 | 31037 ft | 543 kts | 81° |
| 2026-05-07 13:03 | 58.66987 | 30.35760 | 31029 ft | 543 kts | 81° |
| 2026-05-07 13:03 | 58.68515 | 30.50015 | 31028 ft | 545 kts | 81° |
| 2026-05-07 13:04 | 58.70030 | 30.64310 | 31020 ft | 546 kts | 81° |
| 2026-05-07 13:04 | 58.71533 | 30.78637 | 30999 ft | 547 kts | 82° |
| 2026-05-07 13:05 | 58.73014 | 30.92928 | 31012 ft | 546 kts | 82° |
| 2026-05-07 13:05 | 58.74485 | 31.07290 | 31036 ft | 546 kts | 82° |
| 2026-05-07 13:06 | 58.75944 | 31.21709 | 31016 ft | 547 kts | 81° |
| 2026-05-07 13:06 | 58.77380 | 31.36058 | 31010 ft | 549 kts | 82° |
| 2026-05-07 13:07 | 58.78810 | 31.50530 | 31019 ft | 550 kts | 82° |
| 2026-05-07 13:07 | 58.80228 | 31.65052 | 31010 ft | 550 kts | 82° |
| 2026-05-07 13:08 | 58.81621 | 31.79489 | 31012 ft | 550 kts | 82° |
| 2026-05-07 13:08 | 58.83006 | 31.94031 | 31006 ft | 550 kts | 82° |
| 2026-05-07 13:09 | 58.84372 | 32.08571 | 31004 ft | 550 kts | 82° |
| 2026-05-07 13:09 | 58.85715 | 32.23019 | 31013 ft | 550 kts | 82° |
| 2026-05-07 13:10 | 58.87051 | 32.37586 | 31005 ft | 550 kts | 82° |
| 2026-05-07 13:10 | 58.88372 | 32.52198 | 31011 ft | 550 kts | 82° |
| 2026-05-07 13:11 | 58.89667 | 32.66700 | 31006 ft | 550 kts | 82° |
| 2026-05-07 13:11 | 58.90953 | 32.81306 | 31005 ft | 550 kts | 82° |
| 2026-05-07 13:12 | 58.92011 | 32.93466 | 31006 ft | 551 kts | 83° |
| 2026-05-07 13:12 | 58.93474 | 33.10522 | 31008 ft | 551 kts | 83° |
| 2026-05-07 13:13 | 58.94506 | 33.22713 | 31007 ft | 553 kts | 83° |
| 2026-05-07 13:13 | 58.95932 | 33.39815 | 31018 ft | 552 kts | 83° |
| 2026-05-07 13:14 | 58.96947 | 33.52145 | 31011 ft | 553 kts | 83° |
| 2026-05-07 13:14 | 58.98133 | 33.66767 | 30978 ft | 552 kts | 82° |
| 2026-05-07 13:15 | 58.99314 | 33.81545 | 31010 ft | 552 kts | 83° |
| 2026-05-07 13:15 | 59.00475 | 33.96274 | 31017 ft | 552 kts | 83° |
| 2026-05-07 13:16 | 59.01610 | 34.10918 | 31032 ft | 551 kts | 83° |
| 2026-05-07 13:16 | 59.02735 | 34.25646 | 31015 ft | 551 kts | 83° |
| 2026-05-07 13:17 | 59.03844 | 34.40390 | 31026 ft | 551 kts | 83° |
| 2026-05-07 13:17 | 59.04935 | 34.55122 | 30966 ft | 551 kts | 83° |
| 2026-05-07 13:18 | 59.06008 | 34.69869 | 31038 ft | 550 kts | 83° |
| 2026-05-07 13:18 | 59.07059 | 34.84514 | 31015 ft | 551 kts | 83° |
| 2026-05-07 13:19 | 59.08098 | 34.99253 | 31030 ft | 550 kts | 83° |
| 2026-05-07 13:19 | 59.09122 | 35.14026 | 31006 ft | 550 kts | 84° |
| 2026-05-07 13:20 | 59.10127 | 35.28776 | 31021 ft | 550 kts | 84° |
| 2026-05-07 13:20 | 59.11116 | 35.43546 | 30979 ft | 549 kts | 84° |
| 2026-05-07 13:21 | 59.12079 | 35.58183 | 31042 ft | 548 kts | 84° |
| 2026-05-07 13:21 | 59.13034 | 35.72967 | 31028 ft | 549 kts | 84° |
| 2026-05-07 13:22 | 59.13972 | 35.87740 | 31023 ft | 549 kts | 84° |
| 2026-05-07 13:22 | 59.14893 | 36.02528 | 31022 ft | 550 kts | 84° |
| 2026-05-07 13:23 | 59.15792 | 36.17246 | 31024 ft | 550 kts | 84° |
| 2026-05-07 13:23 | 59.16682 | 36.32086 | 30986 ft | 550 kts | 84° |
| 2026-05-07 13:24 | 59.17552 | 36.46892 | 31045 ft | 549 kts | 84° |
| 2026-05-07 13:24 | 59.18399 | 36.61586 | 31023 ft | 549 kts | 84° |
| 2026-05-07 13:25 | 59.19237 | 36.76426 | 31026 ft | 549 kts | 84° |
| 2026-05-07 13:25 | 59.20057 | 36.91258 | 31021 ft | 549 kts | 84° |
| 2026-05-07 13:26 | 59.20861 | 37.06109 | 31028 ft | 549 kts | 85° |
| 2026-05-07 13:26 | 59.21646 | 37.20938 | 31004 ft | 549 kts | 85° |
| 2026-05-07 13:27 | 59.22411 | 37.35702 | 31023 ft | 548 kts | 85° |
| 2026-05-07 13:27 | 59.23163 | 37.50547 | 31037 ft | 548 kts | 85° |
| 2026-05-07 13:28 | 59.23896 | 37.65366 | 31036 ft | 548 kts | 85° |
| 2026-05-07 13:28 | 59.24614 | 37.80207 | 31048 ft | 547 kts | 85° |
| 2026-05-07 13:29 | 59.25307 | 37.94909 | 31052 ft | 547 kts | 85° |
| 2026-05-07 13:29 | 59.25990 | 38.09740 | 31023 ft | 547 kts | 85° |
| 2026-05-07 13:30 | 59.26654 | 38.24552 | 31043 ft | 545 kts | 85° |
| 2026-05-07 13:30 | 59.27301 | 38.39340 | 31046 ft | 546 kts | 85° |
| 2026-05-07 13:31 | 59.27931 | 38.54122 | 31036 ft | 546 kts | 86° |
| 2026-05-07 13:31 | 59.28545 | 38.68952 | 31038 ft | 546 kts | 86° |
| 2026-05-07 13:32 | 59.29142 | 38.83782 | 31045 ft | 547 kts | 86° |
| 2026-05-07 13:32 | 59.29719 | 38.98547 | 30996 ft | 547 kts | 86° |
| 2026-05-07 13:33 | 59.30283 | 39.13391 | 31032 ft | 545 kts | 86° |
| 2026-05-07 13:33 | 59.30828 | 39.28199 | 31043 ft | 545 kts | 86° |
| 2026-05-07 13:34 | 59.31616 | 39.50458 | 31040 ft | 546 kts | 86° |
| 2026-05-07 13:35 | 59.32121 | 39.65322 | 31043 ft | 547 kts | 86° |
| 2026-05-07 13:35 | 59.32606 | 39.80105 | 31041 ft | 548 kts | 86° |
| 2026-05-07 13:36 | 59.33078 | 39.95007 | 31034 ft | 547 kts | 86° |
| 2026-05-07 13:36 | 59.33532 | 40.09883 | 31039 ft | 546 kts | 86° |
| 2026-05-07 13:37 | 59.33969 | 40.24756 | 31049 ft | 547 kts | 86° |
| 2026-05-07 13:37 | 59.34390 | 40.39655 | 31049 ft | 548 kts | 86° |
| 2026-05-07 13:38 | 59.34795 | 40.54628 | 31046 ft | 549 kts | 86° |
| 2026-05-07 13:38 | 59.35181 | 40.69507 | 31053 ft | 549 kts | 87° |
| 2026-05-07 13:39 | 59.35551 | 40.84458 | 31056 ft | 548 kts | 87° |
| 2026-05-07 13:39 | 59.35904 | 40.99386 | 31046 ft | 547 kts | 87° |
| 2026-05-07 13:40 | 59.36239 | 41.14319 | 31054 ft | 547 kts | 87° |
| 2026-05-07 13:40 | 59.36558 | 41.29219 | 31058 ft | 547 kts | 87° |
| 2026-05-07 13:41 | 59.36859 | 41.44124 | 31054 ft | 547 kts | 87° |
| 2026-05-07 13:41 | 59.37141 | 41.58943 | 31055 ft | 547 kts | 87° |
| 2026-05-07 13:42 | 59.37409 | 41.73921 | 31055 ft | 548 kts | 88° |
| 2026-05-07 13:42 | 59.37660 | 41.88853 | 31057 ft | 548 kts | 88° |
| 2026-05-07 13:43 | 59.37892 | 42.03717 | 31078 ft | 549 kts | 88° |
| 2026-05-07 13:43 | 59.38112 | 42.18757 | 31067 ft | 550 kts | 88° |
| 2026-05-07 13:44 | 59.38239 | 42.33783 | 31062 ft | 552 kts | 92° |
| 2026-05-07 13:44 | 59.37453 | 42.48772 | 31057 ft | 552 kts | 98° |
| 2026-05-07 13:45 | 59.36471 | 42.63575 | 31057 ft | 551 kts | 98° |
| 2026-05-07 13:45 | 59.35512 | 42.78473 | 31067 ft | 550 kts | 98° |
| 2026-05-07 13:46 | 59.34573 | 42.93362 | 31068 ft | 550 kts | 98° |
| 2026-05-07 13:46 | 59.33620 | 43.08273 | 31091 ft | 550 kts | 98° |
| 2026-05-07 13:47 | 59.32652 | 43.23086 | 31073 ft | 551 kts | 98° |
| 2026-05-07 13:47 | 59.31659 | 43.37971 | 31068 ft | 551 kts | 98° |
| 2026-05-07 13:48 | 59.30647 | 43.52877 | 31064 ft | 550 kts | 98° |
| 2026-05-07 13:48 | 59.29620 | 43.67750 | 31070 ft | 550 kts | 98° |
| 2026-05-07 13:49 | 59.28583 | 43.82522 | 31064 ft | 550 kts | 98° |
| 2026-05-07 13:49 | 59.27525 | 43.97354 | 31067 ft | 549 kts | 98° |
| 2026-05-07 13:50 | 59.26453 | 44.12165 | 31063 ft | 548 kts | 98° |
| 2026-05-07 13:50 | 59.25422 | 44.26815 | 31074 ft | 547 kts | 98° |
| 2026-05-07 13:51 | 59.24455 | 44.41566 | 31070 ft | 545 kts | 98° |
| 2026-05-07 13:51 | 59.23475 | 44.56254 | 31073 ft | 544 kts | 98° |
| 2026-05-07 13:52 | 59.22470 | 44.70843 | 31083 ft | 544 kts | 98° |
| 2026-05-07 13:52 | 59.21438 | 44.85499 | 31042 ft | 544 kts | 98° |
| 2026-05-07 13:53 | 59.20392 | 45.00131 | 31074 ft | 543 kts | 99° |
| 2026-05-07 13:53 | 59.19336 | 45.14703 | 31073 ft | 542 kts | 99° |
| 2026-05-07 13:54 | 59.18235 | 45.29221 | 31078 ft | 540 kts | 102° |
| 2026-05-07 13:54 | 59.16691 | 45.43519 | 31081 ft | 538 kts | 104° |
| 2026-05-07 13:55 | 59.15339 | 45.55394 | 31079 ft | 538 kts | 104° |
| 2026-05-07 13:55 | 59.13721 | 45.69637 | 31068 ft | 537 kts | 104° |
| 2026-05-07 13:56 | 59.12117 | 45.83816 | 31076 ft | 536 kts | 104° |
| 2026-05-07 13:56 | 59.10504 | 45.97975 | 31076 ft | 535 kts | 104° |
| 2026-05-07 13:57 | 59.08874 | 46.12119 | 31070 ft | 534 kts | 104° |
| 2026-05-07 13:57 | 59.07242 | 46.26126 | 31075 ft | 534 kts | 104° |
| 2026-05-07 13:58 | 59.05583 | 46.40209 | 31071 ft | 533 kts | 104° |
| 2026-05-07 13:58 | 59.03908 | 46.54294 | 31083 ft | 534 kts | 105° |
| 2026-05-07 13:59 | 59.02221 | 46.68336 | 31077 ft | 534 kts | 105° |
| 2026-05-07 13:59 | 59.00526 | 46.82304 | 31071 ft | 535 kts | 105° |
| 2026-05-07 14:00 | 58.98805 | 46.96354 | 31068 ft | 535 kts | 105° |
| 2026-05-07 14:00 | 58.97070 | 47.10382 | 31060 ft | 534 kts | 106° |
| 2026-05-07 14:01 | 58.95319 | 47.24397 | 31064 ft | 533 kts | 106° |
| 2026-05-07 14:01 | 58.93576 | 47.38235 | 31065 ft | 532 kts | 106° |
| 2026-05-07 14:02 | 58.91835 | 47.52189 | 31060 ft | 532 kts | 104° |
| 2026-05-07 14:02 | 58.90381 | 47.66249 | 31062 ft | 532 kts | 103° |
| 2026-05-07 14:03 | 58.88983 | 47.80304 | 31043 ft | 531 kts | 103° |
| 2026-05-07 14:03 | 58.87533 | 47.94199 | 31058 ft | 530 kts | 103° |
| 2026-05-07 14:04 | 58.86031 | 48.08163 | 31067 ft | 530 kts | 104° |
| 2026-05-07 14:04 | 58.84514 | 48.22114 | 31051 ft | 530 kts | 104° |
| 2026-05-07 14:05 | 58.82988 | 48.36057 | 31054 ft | 530 kts | 104° |
| 2026-05-07 14:05 | 58.81455 | 48.49921 | 31052 ft | 530 kts | 104° |
| 2026-05-07 14:06 | 58.79905 | 48.63824 | 31049 ft | 529 kts | 104° |
| 2026-05-07 14:06 | 58.78345 | 48.77710 | 31057 ft | 529 kts | 104° |
| 2026-05-07 14:07 | 58.76763 | 48.91578 | 31051 ft | 529 kts | 104° |
| 2026-05-07 14:07 | 58.75151 | 49.05422 | 31059 ft | 529 kts | 104° |
| 2026-05-07 14:08 | 58.73540 | 49.19179 | 31051 ft | 529 kts | 104° |
| 2026-05-07 14:08 | 58.71903 | 49.33027 | 31060 ft | 529 kts | 105° |
| 2026-05-07 14:09 | 58.70258 | 49.46856 | 31056 ft | 529 kts | 105° |
| 2026-05-07 14:09 | 58.68612 | 49.60576 | 31055 ft | 529 kts | 105° |
| 2026-05-07 14:10 | 58.66935 | 49.74416 | 31056 ft | 529 kts | 105° |
| 2026-05-07 14:10 | 58.65248 | 49.88205 | 31053 ft | 530 kts | 105° |
| 2026-05-07 14:11 | 58.63544 | 50.01996 | 31038 ft | 529 kts | 105° |
| 2026-05-07 14:11 | 58.61841 | 50.15653 | 31048 ft | 528 kts | 105° |
| 2026-05-07 14:12 | 58.60114 | 50.29364 | 31049 ft | 528 kts | 105° |
| 2026-05-07 14:12 | 58.58375 | 50.43068 | 31050 ft | 527 kts | 105° |
| 2026-05-07 14:13 | 58.56620 | 50.56647 | 31046 ft | 527 kts | 106° |
| 2026-05-07 14:13 | 58.54787 | 50.70256 | 31014 ft | 527 kts | 107° |
| 2026-05-07 14:14 | 58.52939 | 50.83811 | 31065 ft | 525 kts | 106° |
| 2026-05-07 14:14 | 58.51085 | 50.97367 | 31049 ft | 526 kts | 107° |
| 2026-05-07 14:15 | 58.49235 | 51.10808 | 31049 ft | 526 kts | 107° |
| 2026-05-07 14:15 | 58.47357 | 51.24337 | 31050 ft | 526 kts | 107° |
| 2026-05-07 14:16 | 58.45468 | 51.37826 | 31049 ft | 526 kts | 107° |
| 2026-05-07 14:16 | 58.43562 | 51.51328 | 31050 ft | 526 kts | 107° |
| 2026-05-07 14:17 | 58.41665 | 51.64824 | 31051 ft | 526 kts | 105° |
| 2026-05-07 14:17 | 58.40238 | 51.78513 | 31048 ft | 526 kts | 102° |
| 2026-05-07 14:18 | 58.38854 | 51.92233 | 31046 ft | 527 kts | 102° |
| 2026-05-07 14:18 | 58.37432 | 52.05844 | 31040 ft | 527 kts | 103° |
| 2026-05-07 14:19 | 58.35974 | 52.19558 | 31013 ft | 527 kts | 103° |
| 2026-05-07 14:19 | 58.34500 | 52.33222 | 31032 ft | 526 kts | 103° |
| 2026-05-07 14:20 | 58.33014 | 52.46877 | 31037 ft | 525 kts | 103° |
| 2026-05-07 14:20 | 58.31518 | 52.60488 | 31042 ft | 525 kts | 103° |
| 2026-05-07 14:21 | 58.30020 | 52.73984 | 31044 ft | 524 kts | 103° |
| 2026-05-07 14:21 | 58.28500 | 52.87540 | 31056 ft | 524 kts | 103° |
| 2026-05-07 14:22 | 58.26960 | 53.01122 | 31032 ft | 524 kts | 104° |
| 2026-05-07 14:22 | 58.25409 | 53.14677 | 31039 ft | 525 kts | 104° |
| 2026-05-07 14:23 | 58.23851 | 53.28146 | 31031 ft | 525 kts | 104° |
| 2026-05-07 14:23 | 58.22270 | 53.41686 | 31034 ft | 525 kts | 104° |
| 2026-05-07 14:24 | 58.20675 | 53.55209 | 31040 ft | 525 kts | 104° |
| 2026-05-07 14:24 | 58.19060 | 53.68771 | 31028 ft | 525 kts | 104° |
| 2026-05-07 14:25 | 58.17448 | 53.82177 | 31036 ft | 524 kts | 104° |
| 2026-05-07 14:25 | 58.15814 | 53.95656 | 31023 ft | 523 kts | 104° |
| 2026-05-07 14:26 | 58.14175 | 54.09067 | 31029 ft | 522 kts | 104° |
| 2026-05-07 14:26 | 58.12528 | 54.22481 | 31023 ft | 522 kts | 104° |
| 2026-05-07 14:27 | 58.10881 | 54.35789 | 31024 ft | 522 kts | 104° |
| 2026-05-07 14:27 | 58.09208 | 54.49169 | 31003 ft | 522 kts | 104° |
| 2026-05-07 14:28 | 58.07523 | 54.62523 | 31018 ft | 521 kts | 105° |
| 2026-05-07 14:28 | 58.05841 | 54.75755 | 31033 ft | 520 kts | 104° |
| 2026-05-07 14:29 | 58.04662 | 54.89278 | 31032 ft | 521 kts | 98° |
| 2026-05-07 14:29 | 58.03766 | 55.02894 | 31029 ft | 522 kts | 98° |
| 2026-05-07 14:30 | 58.02810 | 55.16441 | 31006 ft | 523 kts | 98° |
| 2026-05-07 14:30 | 58.01814 | 55.30081 | 30988 ft | 524 kts | 98° |
| 2026-05-07 14:31 | 58.00814 | 55.43664 | 31008 ft | 521 kts | 98° |
| 2026-05-07 14:31 | 57.99814 | 55.57105 | 31019 ft | 518 kts | 98° |
| 2026-05-07 14:32 | 57.98796 | 55.70594 | 30997 ft | 518 kts | 99° |
| 2026-05-07 14:32 | 57.97774 | 55.83971 | 30994 ft | 519 kts | 99° |
| 2026-05-07 14:33 | 57.96729 | 55.97462 | 30998 ft | 520 kts | 99° |
| 2026-05-07 14:33 | 57.95674 | 56.10979 | 30999 ft | 521 kts | 99° |
| 2026-05-07 14:34 | 57.94789 | 56.22199 | 30983 ft | 520 kts | 99° |
| 2026-05-07 14:34 | 57.93718 | 56.35623 | 30993 ft | 517 kts | 99° |
| 2026-05-07 14:35 | 57.92638 | 56.48959 | 31007 ft | 515 kts | 99° |
| 2026-05-07 14:35 | 57.91542 | 56.62288 | 31000 ft | 515 kts | 99° |
| 2026-05-07 14:36 | 57.90433 | 56.75613 | 30998 ft | 516 kts | 99° |
| 2026-05-07 14:36 | 57.89308 | 56.88958 | 30995 ft | 517 kts | 100° |
| 2026-05-07 14:37 | 57.88173 | 57.02245 | 30995 ft | 518 kts | 100° |
| 2026-05-07 14:37 | 57.86427 | 57.22352 | 30986 ft | 519 kts | 100° |
| 2026-05-07 14:38 | 57.85248 | 57.35733 | 30981 ft | 519 kts | 100° |
| 2026-05-07 14:38 | 57.84053 | 57.49110 | 30994 ft | 519 kts | 100° |
| 2026-05-07 14:39 | 57.82844 | 57.62488 | 30988 ft | 519 kts | 100° |
| 2026-05-07 14:39 | 57.81628 | 57.75769 | 30990 ft | 518 kts | 101° |
| 2026-05-07 14:40 | 57.80396 | 57.89091 | 30972 ft | 518 kts | 100° |
| 2026-05-07 14:40 | 57.79154 | 58.02362 | 30976 ft | 515 kts | 101° |
| 2026-05-07 14:41 | 57.77902 | 58.15580 | 30981 ft | 515 kts | 101° |
| 2026-05-07 14:41 | 57.76642 | 58.28778 | 30986 ft | 514 kts | 101° |
| 2026-05-07 14:42 | 57.75374 | 58.41911 | 30981 ft | 514 kts | 101° |
| 2026-05-07 14:42 | 57.74089 | 58.55100 | 30982 ft | 515 kts | 101° |
| 2026-05-07 14:43 | 57.72790 | 58.68315 | 30972 ft | 516 kts | 101° |
| 2026-05-07 14:43 | 57.71478 | 58.81503 | 30966 ft | 515 kts | 101° |
| 2026-05-07 14:44 | 57.70155 | 58.94670 | 30973 ft | 514 kts | 101° |
| 2026-05-07 14:44 | 57.68827 | 59.07733 | 30975 ft | 514 kts | 101° |
| 2026-05-07 14:45 | 57.67476 | 59.20878 | 30970 ft | 514 kts | 101° |
| 2026-05-07 14:45 | 57.66112 | 59.34014 | 30959 ft | 514 kts | 102° |
| 2026-05-07 14:46 | 57.64734 | 59.47134 | 30967 ft | 515 kts | 102° |
| 2026-05-07 14:46 | 57.63342 | 59.60258 | 30939 ft | 515 kts | 102° |
| 2026-05-07 14:47 | 57.61947 | 59.73260 | 30962 ft | 513 kts | 102° |
| 2026-05-07 14:47 | 57.60538 | 59.86268 | 30957 ft | 511 kts | 102° |
| 2026-05-07 14:48 | 57.59114 | 59.99284 | 30949 ft | 510 kts | 102° |
| 2026-05-07 14:48 | 57.57682 | 60.12237 | 30963 ft | 510 kts | 102° |
| 2026-05-07 14:49 | 57.56236 | 60.25193 | 30955 ft | 510 kts | 102° |
| 2026-05-07 14:49 | 57.54784 | 60.38072 | 30949 ft | 511 kts | 102° |
| 2026-05-07 14:50 | 57.53308 | 60.51053 | 30967 ft | 510 kts | 102° |
| 2026-05-07 14:50 | 57.52028 | 60.64028 | 30928 ft | 509 kts | 95° |
| 2026-05-07 14:51 | 57.51657 | 60.77090 | 30939 ft | 507 kts | 92° |
| 2026-05-07 14:51 | 57.51318 | 60.90197 | 30944 ft | 506 kts | 93° |
| 2026-05-07 14:52 | 57.50925 | 61.03275 | 30949 ft | 507 kts | 93° |
| 2026-05-07 14:52 | 57.50501 | 61.16393 | 30942 ft | 507 kts | 94° |
| 2026-05-07 14:53 | 57.50066 | 61.29424 | 30952 ft | 508 kts | 94° |
| 2026-05-07 14:53 | 57.49617 | 61.42573 | 30941 ft | 510 kts | 94° |
| 2026-05-07 14:54 | 57.49154 | 61.55761 | 30928 ft | 510 kts | 94° |
| 2026-05-07 14:54 | 57.48683 | 61.68920 | 30931 ft | 508 kts | 94° |
| 2026-05-07 14:55 | 57.48226 | 61.82009 | 30932 ft | 506 kts | 94° |
| 2026-05-07 14:55 | 57.47762 | 61.95031 | 30943 ft | 504 kts | 94° |
| 2026-05-07 14:56 | 57.47283 | 62.07996 | 30925 ft | 506 kts | 94° |
| 2026-05-07 14:56 | 57.46786 | 62.21100 | 30941 ft | 508 kts | 94° |
| 2026-05-07 14:57 | 57.46261 | 62.34236 | 30933 ft | 510 kts | 94° |
| 2026-05-07 14:57 | 57.45719 | 62.47306 | 30919 ft | 511 kts | 94° |
| 2026-05-07 14:58 | 57.45162 | 62.60473 | 30902 ft | 511 kts | 94° |
| 2026-05-07 14:58 | 57.44595 | 62.73617 | 30925 ft | 508 kts | 94° |
| 2026-05-07 14:59 | 57.44018 | 62.86658 | 30911 ft | 505 kts | 95° |
| 2026-05-07 14:59 | 57.43432 | 62.99607 | 30910 ft | 502 kts | 95° |
| 2026-05-07 15:00 | 57.42834 | 63.12514 | 30917 ft | 501 kts | 95° |
| 2026-05-07 15:00 | 57.42227 | 63.25318 | 30902 ft | 501 kts | 95° |
| 2026-05-07 15:01 | 57.41603 | 63.38226 | 30918 ft | 503 kts | 95° |
| 2026-05-07 15:01 | 57.40962 | 63.51192 | 30906 ft | 506 kts | 95° |
| 2026-05-07 15:02 | 57.40306 | 63.64242 | 30909 ft | 508 kts | 95° |
| 2026-05-07 15:02 | 57.39523 | 63.77290 | 30882 ft | 509 kts | 100° |
| 2026-05-07 15:03 | 57.37805 | 63.89970 | 30905 ft | 506 kts | 105° |
| 2026-05-07 15:03 | 57.35960 | 64.02444 | 30888 ft | 504 kts | 105° |
| 2026-05-07 15:04 | 57.34145 | 64.14991 | 30885 ft | 503 kts | 105° |
| 2026-05-07 15:04 | 57.32350 | 64.27454 | 30891 ft | 503 kts | 105° |
| 2026-05-07 15:05 | 57.30532 | 64.39982 | 30879 ft | 503 kts | 105° |
| 2026-05-07 15:05 | 57.28697 | 64.52506 | 30883 ft | 504 kts | 105° |
| 2026-05-07 15:06 | 57.26860 | 64.65010 | 30868 ft | 503 kts | 105° |
| 2026-05-07 15:06 | 57.25020 | 64.77502 | 30870 ft | 502 kts | 105° |
| 2026-05-07 15:07 | 57.23187 | 64.89854 | 30889 ft | 501 kts | 105° |
| 2026-05-07 15:07 | 57.21331 | 65.02254 | 30892 ft | 500 kts | 106° |
| 2026-05-07 15:08 | 57.19466 | 65.14620 | 30909 ft | 500 kts | 106° |
| 2026-05-07 15:08 | 57.17599 | 65.26923 | 30920 ft | 499 kts | 106° |
| 2026-05-07 15:09 | 57.15916 | 65.39354 | 30918 ft | 499 kts | 102° |
| 2026-05-07 15:09 | 57.14451 | 65.51883 | 30910 ft | 499 kts | 102° |
| 2026-05-07 15:10 | 57.12989 | 65.64343 | 30871 ft | 500 kts | 102° |
| 2026-05-07 15:10 | 57.11489 | 65.76870 | 30873 ft | 500 kts | 103° |
| 2026-05-07 15:11 | 57.09970 | 65.89352 | 30864 ft | 500 kts | 103° |
| 2026-05-07 15:11 | 57.08442 | 66.01782 | 30872 ft | 500 kts | 103° |
| 2026-05-07 15:12 | 57.06895 | 66.14268 | 30871 ft | 501 kts | 103° |
| 2026-05-07 15:12 | 57.05336 | 66.26739 | 30855 ft | 501 kts | 103° |
| 2026-05-07 15:13 | 57.04030 | 66.37107 | 30882 ft | 501 kts | 103° |
| 2026-05-07 15:13 | 57.02184 | 66.51629 | 30869 ft | 502 kts | 103° |
| 2026-05-07 15:14 | 57.00843 | 66.62089 | 30876 ft | 502 kts | 103° |
| 2026-05-07 15:14 | 56.99238 | 66.74513 | 30878 ft | 503 kts | 103° |
| 2026-05-07 15:15 | 56.97609 | 66.87011 | 30869 ft | 503 kts | 104° |
| 2026-05-07 15:15 | 56.95968 | 66.99501 | 30867 ft | 503 kts | 104° |
| 2026-05-07 15:16 | 56.94326 | 67.11889 | 30879 ft | 503 kts | 104° |
| 2026-05-07 15:16 | 56.92662 | 67.24343 | 30874 ft | 503 kts | 104° |
| 2026-05-07 15:17 | 56.90988 | 67.36763 | 30868 ft | 502 kts | 104° |
| 2026-05-07 15:17 | 56.89302 | 67.49173 | 30876 ft | 502 kts | 104° |
| 2026-05-07 15:18 | 56.87607 | 67.61542 | 30873 ft | 501 kts | 104° |
| 2026-05-07 15:18 | 56.85898 | 67.73919 | 30868 ft | 501 kts | 104° |
| 2026-05-07 15:19 | 56.84187 | 67.86209 | 30873 ft | 501 kts | 104° |
| 2026-05-07 15:19 | 56.82454 | 67.98563 | 30870 ft | 502 kts | 105° |
| 2026-05-07 15:20 | 56.80701 | 68.10954 | 31062 ft | 506 kts | 105° |
| 2026-05-07 15:20 | 56.79818 | 68.17162 | 31414 ft | 506 kts | 105° |
| 2026-05-07 15:20 | 56.78932 | 68.23368 | 31799 ft | 504 kts | 105° |
| 2026-05-07 15:21 | 56.78045 | 68.29549 | 32176 ft | 503 kts | 105° |
| 2026-05-07 15:21 | 56.77157 | 68.35719 | 32534 ft | 502 kts | 105° |
| 2026-05-07 15:21 | 56.76276 | 68.41813 | 32802 ft | 502 kts | 105° |
| 2026-05-07 15:21 | 56.75379 | 68.47993 | 32832 ft | 505 kts | 105° |
| 2026-05-07 15:22 | 56.73576 | 68.60349 | 32868 ft | 504 kts | 105° |
| 2026-05-07 15:22 | 56.71763 | 68.72681 | 32862 ft | 503 kts | 106° |
| 2026-05-07 15:23 | 56.69943 | 68.84960 | 32866 ft | 502 kts | 106° |
| 2026-05-07 15:23 | 56.68120 | 68.97172 | 32851 ft | 501 kts | 106° |
| 2026-05-07 15:24 | 56.66272 | 69.09454 | 32866 ft | 500 kts | 106° |
| 2026-05-07 15:24 | 56.64433 | 69.21585 | 32866 ft | 500 kts | 106° |
| 2026-05-07 15:25 | 56.62567 | 69.33808 | 32867 ft | 501 kts | 106° |
| 2026-05-07 15:25 | 56.60692 | 69.46000 | 32872 ft | 501 kts | 107° |
| 2026-05-07 15:26 | 56.58802 | 69.58199 | 32870 ft | 502 kts | 107° |
| 2026-05-07 15:26 | 56.56897 | 69.70405 | 32869 ft | 503 kts | 107° |
| 2026-05-07 15:27 | 56.54991 | 69.82533 | 32852 ft | 503 kts | 107° |
| 2026-05-07 15:27 | 56.53060 | 69.94741 | 32867 ft | 503 kts | 107° |
| 2026-05-07 15:28 | 56.51085 | 70.06910 | 32865 ft | 503 kts | 108° |
| 2026-05-07 15:28 | 56.48942 | 70.18946 | 32866 ft | 502 kts | 109° |
| 2026-05-07 15:29 | 56.46765 | 70.30893 | 32866 ft | 502 kts | 109° |
| 2026-05-07 15:29 | 56.44583 | 70.42926 | 32868 ft | 502 kts | 109° |
| 2026-05-07 15:30 | 56.42408 | 70.54931 | 32868 ft | 502 kts | 109° |
| 2026-05-07 15:30 | 56.40226 | 70.66919 | 32862 ft | 502 kts | 109° |
| 2026-05-07 15:31 | 56.38041 | 70.78846 | 32877 ft | 503 kts | 110° |
| 2026-05-07 15:31 | 56.35825 | 70.90857 | 32876 ft | 504 kts | 110° |
| 2026-05-07 15:32 | 56.33599 | 71.02839 | 32886 ft | 504 kts | 110° |
| 2026-05-07 15:32 | 56.31356 | 71.14839 | 32885 ft | 505 kts | 110° |
| 2026-05-07 15:33 | 56.29098 | 71.26845 | 32881 ft | 505 kts | 110° |
| 2026-05-07 15:33 | 56.26845 | 71.38752 | 32893 ft | 505 kts | 110° |
| 2026-05-07 15:34 | 56.24561 | 71.50744 | 32879 ft | 506 kts | 110° |
| 2026-05-07 15:34 | 56.22267 | 71.62715 | 32896 ft | 506 kts | 110° |
| 2026-05-07 15:35 | 56.19957 | 71.74692 | 32897 ft | 507 kts | 111° |
| 2026-05-07 15:35 | 56.17637 | 71.86646 | 32897 ft | 507 kts | 111° |
| 2026-05-07 15:36 | 56.15315 | 71.98539 | 32902 ft | 508 kts | 111° |
| 2026-05-07 15:36 | 56.12966 | 72.10496 | 32901 ft | 508 kts | 111° |
| 2026-05-07 15:37 | 56.10606 | 72.22440 | 32902 ft | 508 kts | 111° |
| 2026-05-07 15:37 | 56.08231 | 72.34385 | 32901 ft | 508 kts | 111° |
| 2026-05-07 15:38 | 56.05858 | 72.46246 | 32907 ft | 509 kts | 111° |
| 2026-05-07 15:38 | 56.03452 | 72.58196 | 32911 ft | 510 kts | 112° |
| 2026-05-07 15:39 | 56.01036 | 72.70130 | 32910 ft | 511 kts | 112° |
| 2026-05-07 15:39 | 55.98600 | 72.82088 | 32910 ft | 512 kts | 112° |
| 2026-05-07 15:40 | 55.96148 | 72.94054 | 32912 ft | 513 kts | 112° |
| 2026-05-07 15:40 | 55.93675 | 73.06053 | 32885 ft | 514 kts | 112° |
| 2026-05-07 15:41 | 55.91213 | 73.17934 | 32910 ft | 514 kts | 112° |
| 2026-05-07 15:41 | 55.88732 | 73.29902 | 32916 ft | 515 kts | 112° |
| 2026-05-07 15:42 | 55.86316 | 73.41951 | 32915 ft | 516 kts | 111° |
| 2026-05-07 15:42 | 55.83915 | 73.54006 | 32917 ft | 517 kts | 112° |
| 2026-05-07 15:43 | 55.81486 | 73.66073 | 32915 ft | 517 kts | 112° |
| 2026-05-07 15:43 | 55.79048 | 73.78058 | 32916 ft | 518 kts | 112° |
| 2026-05-07 15:44 | 55.76586 | 73.90084 | 32916 ft | 518 kts | 113° |
| 2026-05-07 15:44 | 55.74107 | 74.02108 | 32920 ft | 519 kts | 113° |
| 2026-05-07 15:45 | 55.71608 | 74.14158 | 32926 ft | 520 kts | 113° |
| 2026-05-07 15:45 | 55.69104 | 74.26172 | 32931 ft | 520 kts | 113° |
| 2026-05-07 15:46 | 55.65322 | 74.44182 | 32912 ft | 521 kts | 113° |
| 2026-05-07 15:47 | 55.62774 | 74.56225 | 32918 ft | 522 kts | 113° |
| 2026-05-07 15:47 | 55.60212 | 74.68259 | 32931 ft | 522 kts | 113° |
| 2026-05-07 15:48 | 55.57640 | 74.80274 | 32921 ft | 522 kts | 114° |
| 2026-05-07 15:48 | 55.55066 | 74.92223 | 32938 ft | 522 kts | 114° |
| 2026-05-07 15:49 | 55.52471 | 75.04203 | 32940 ft | 522 kts | 114° |
| 2026-05-07 15:49 | 55.49866 | 75.16158 | 32928 ft | 522 kts | 114° |
| 2026-05-07 15:50 | 55.47248 | 75.28108 | 32920 ft | 522 kts | 114° |
| 2026-05-07 15:50 | 55.44631 | 75.39979 | 32941 ft | 522 kts | 114° |
| 2026-05-07 15:51 | 55.41992 | 75.51886 | 32931 ft | 522 kts | 115° |
| 2026-05-07 15:51 | 55.39333 | 75.63810 | 32934 ft | 523 kts | 115° |
| 2026-05-07 15:52 | 55.36658 | 75.75742 | 32946 ft | 524 kts | 115° |
| 2026-05-07 15:52 | 55.33981 | 75.87612 | 32945 ft | 525 kts | 115° |
| 2026-05-07 15:53 | 55.31731 | 75.97540 | 32935 ft | 525 kts | 115° |
| 2026-05-07 15:53 | 55.29012 | 76.09474 | 32949 ft | 526 kts | 115° |
| 2026-05-07 15:54 | 55.26286 | 76.21370 | 32913 ft | 526 kts | 115° |
| 2026-05-07 15:54 | 55.23552 | 76.33242 | 32938 ft | 524 kts | 115° |
| 2026-05-07 15:55 | 55.20827 | 76.44999 | 32952 ft | 523 kts | 115° |
| 2026-05-07 15:55 | 55.18073 | 76.56819 | 32946 ft | 523 kts | 115° |
| 2026-05-07 15:56 | 55.15311 | 76.68609 | 32951 ft | 522 kts | 115° |
| 2026-05-07 15:56 | 55.12545 | 76.80352 | 32952 ft | 522 kts | 115° |
| 2026-05-07 15:57 | 55.09783 | 76.92013 | 32947 ft | 522 kts | 116° |
| 2026-05-07 15:57 | 55.06991 | 77.03740 | 32942 ft | 521 kts | 116° |
| 2026-05-07 15:58 | 55.04194 | 77.15422 | 32948 ft | 521 kts | 116° |
| 2026-05-07 15:58 | 55.01388 | 77.27082 | 32954 ft | 521 kts | 116° |
| 2026-05-07 15:59 | 54.98582 | 77.38677 | 32966 ft | 521 kts | 116° |
| 2026-05-07 15:59 | 54.95760 | 77.50281 | 32958 ft | 521 kts | 116° |
| 2026-05-07 16:00 | 54.92915 | 77.61923 | 32958 ft | 521 kts | 116° |
| 2026-05-07 16:00 | 54.89958 | 77.73333 | 32927 ft | 519 kts | 118° |
| 2026-05-07 16:01 | 54.86830 | 77.84651 | 32962 ft | 520 kts | 119° |
| 2026-05-07 16:01 | 54.83687 | 77.95990 | 32964 ft | 521 kts | 118° |
| 2026-05-07 16:02 | 54.80558 | 78.07354 | 32973 ft | 522 kts | 118° |
| 2026-05-07 16:02 | 54.77427 | 78.18730 | 32967 ft | 523 kts | 118° |
| 2026-05-07 16:03 | 54.74288 | 78.30084 | 32968 ft | 523 kts | 118° |
| 2026-05-07 16:03 | 54.71153 | 78.41355 | 32967 ft | 522 kts | 118° |
| 2026-05-07 16:04 | 54.67985 | 78.52686 | 32970 ft | 522 kts | 118° |
| 2026-05-07 16:04 | 54.64803 | 78.64012 | 32974 ft | 523 kts | 119° |
| 2026-05-07 16:05 | 54.61614 | 78.75305 | 32976 ft | 523 kts | 119° |
| 2026-05-07 16:05 | 54.58432 | 78.86521 | 32976 ft | 524 kts | 119° |
| 2026-05-07 16:06 | 54.55211 | 78.97821 | 32977 ft | 524 kts | 119° |
| 2026-05-07 16:06 | 54.51983 | 79.09091 | 32978 ft | 524 kts | 119° |
| 2026-05-07 16:07 | 54.48769 | 79.20258 | 32967 ft | 523 kts | 119° |
| 2026-05-07 16:07 | 54.45518 | 79.31495 | 32978 ft | 524 kts | 119° |
| 2026-05-07 16:08 | 54.42280 | 79.42637 | 32978 ft | 524 kts | 120° |
| 2026-05-07 16:08 | 54.39004 | 79.53856 | 32978 ft | 524 kts | 120° |
| 2026-05-07 16:09 | 54.35728 | 79.65026 | 32981 ft | 524 kts | 120° |
| 2026-05-07 16:09 | 54.32434 | 79.76198 | 32980 ft | 524 kts | 120° |
| 2026-05-07 16:10 | 54.29143 | 79.87318 | 32984 ft | 522 kts | 120° |
| 2026-05-07 16:10 | 54.25848 | 79.98388 | 32980 ft | 521 kts | 120° |
| 2026-05-07 16:11 | 54.22549 | 80.09422 | 32986 ft | 521 kts | 120° |
| 2026-05-07 16:11 | 54.19263 | 80.20364 | 32987 ft | 521 kts | 120° |
| 2026-05-07 16:12 | 54.15945 | 80.31360 | 32990 ft | 521 kts | 120° |
| 2026-05-07 16:12 | 54.12609 | 80.42366 | 32990 ft | 521 kts | 120° |
| 2026-05-07 16:13 | 54.09266 | 80.53349 | 32985 ft | 522 kts | 120° |
| 2026-05-07 16:13 | 54.05904 | 80.64339 | 32992 ft | 523 kts | 120° |
| 2026-05-07 16:14 | 54.02532 | 80.75321 | 32995 ft | 525 kts | 120° |
| 2026-05-07 16:14 | 53.99134 | 80.86343 | 32994 ft | 526 kts | 120° |
| 2026-05-07 16:15 | 53.95752 | 80.97282 | 32995 ft | 526 kts | 120° |
| 2026-05-07 16:15 | 53.92331 | 81.08304 | 32998 ft | 526 kts | 120° |
| 2026-05-07 16:16 | 53.88907 | 81.19291 | 33002 ft | 526 kts | 119° |
| 2026-05-07 16:16 | 53.85486 | 81.30205 | 32995 ft | 527 kts | 119° |
| 2026-05-07 16:17 | 53.82033 | 81.41180 | 33005 ft | 527 kts | 120° |
| 2026-05-07 16:17 | 53.78575 | 81.52126 | 32992 ft | 526 kts | 120° |
| 2026-05-07 16:18 | 53.75111 | 81.62983 | 32998 ft | 526 kts | 120° |
| 2026-05-07 16:18 | 53.71620 | 81.73863 | 33000 ft | 525 kts | 120° |
| 2026-05-07 16:19 | 53.68124 | 81.84720 | 32998 ft | 525 kts | 120° |
| 2026-05-07 16:19 | 53.64650 | 81.95472 | 33004 ft | 525 kts | 120° |
| 2026-05-07 16:20 | 53.61142 | 82.06284 | 33012 ft | 525 kts | 120° |
| 2026-05-07 16:20 | 53.57625 | 82.17065 | 33010 ft | 525 kts | 120° |
| 2026-05-07 16:21 | 53.54100 | 82.27819 | 33012 ft | 525 kts | 120° |
| 2026-05-07 16:21 | 53.50583 | 82.38512 | 32988 ft | 524 kts | 120° |
| 2026-05-07 16:22 | 53.47046 | 82.49221 | 33013 ft | 523 kts | 120° |
| 2026-05-07 16:22 | 53.43507 | 82.59889 | 33015 ft | 523 kts | 120° |
| 2026-05-07 16:23 | 53.39962 | 82.70530 | 33014 ft | 523 kts | 120° |
| 2026-05-07 16:23 | 53.36405 | 82.81162 | 33032 ft | 523 kts | 120° |
| 2026-05-07 16:24 | 53.32861 | 82.91715 | 33016 ft | 522 kts | 120° |
| 2026-05-07 16:24 | 53.28859 | 83.01789 | 33010 ft | 519 kts | 130° |
| 2026-05-07 16:25 | 53.23917 | 83.10519 | 33029 ft | 516 kts | 137° |
| 2026-05-07 16:25 | 53.18804 | 83.18959 | 33028 ft | 516 kts | 137° |
| 2026-05-07 16:26 | 53.13707 | 83.27442 | 33042 ft | 517 kts | 137° |
| 2026-05-07 16:26 | 53.08649 | 83.35892 | 33036 ft | 518 kts | 137° |
| 2026-05-07 16:27 | 53.03565 | 83.44366 | 33031 ft | 518 kts | 137° |
| 2026-05-07 16:27 | 52.98465 | 83.52834 | 33038 ft | 517 kts | 137° |
| 2026-05-07 16:28 | 52.93365 | 83.61266 | 33031 ft | 517 kts | 137° |
| 2026-05-07 16:28 | 52.88264 | 83.69670 | 33029 ft | 516 kts | 137° |
| 2026-05-07 16:29 | 52.83193 | 83.77994 | 33012 ft | 516 kts | 137° |
| 2026-05-07 16:29 | 52.78074 | 83.86369 | 33030 ft | 515 kts | 137° |
| 2026-05-07 16:30 | 52.72974 | 83.94683 | 33026 ft | 515 kts | 137° |
| 2026-05-07 16:30 | 52.67859 | 84.02993 | 33038 ft | 516 kts | 137° |
| 2026-05-07 16:31 | 52.62771 | 84.11230 | 33033 ft | 516 kts | 137° |
| 2026-05-07 16:31 | 52.57641 | 84.19507 | 33037 ft | 516 kts | 137° |
| 2026-05-07 16:32 | 52.52508 | 84.27760 | 33041 ft | 516 kts | 137° |
| 2026-05-07 16:32 | 52.47347 | 84.36030 | 33022 ft | 516 kts | 137° |
| 2026-05-07 16:33 | 52.42223 | 84.44212 | 33025 ft | 515 kts | 137° |
| 2026-05-07 16:33 | 52.37103 | 84.52359 | 33028 ft | 515 kts | 137° |
| 2026-05-07 16:34 | 52.31965 | 84.60508 | 33037 ft | 514 kts | 137° |
| 2026-05-07 16:34 | 52.27690 | 84.67266 | 33036 ft | 513 kts | 137° |
| 2026-05-07 16:35 | 52.22554 | 84.75361 | 33036 ft | 513 kts | 137° |
| 2026-05-07 16:35 | 52.17408 | 84.83443 | 33034 ft | 513 kts | 137° |
| 2026-05-07 16:36 | 52.12269 | 84.91488 | 33031 ft | 512 kts | 137° |
| 2026-05-07 16:36 | 52.07119 | 84.99522 | 33047 ft | 511 kts | 137° |
| 2026-05-07 16:37 | 52.02008 | 85.07470 | 33047 ft | 511 kts | 138° |
| 2026-05-07 16:37 | 51.96855 | 85.15454 | 33059 ft | 511 kts | 138° |
| 2026-05-07 16:38 | 51.91706 | 85.23408 | 33052 ft | 510 kts | 138° |
| 2026-05-07 16:38 | 51.86588 | 85.31287 | 33055 ft | 510 kts | 138° |
| 2026-05-07 16:39 | 51.81437 | 85.39190 | 33059 ft | 510 kts | 138° |
| 2026-05-07 16:39 | 51.76278 | 85.47080 | 33067 ft | 509 kts | 138° |
| 2026-05-07 16:40 | 51.71127 | 85.54931 | 33049 ft | 509 kts | 138° |
| 2026-05-07 16:40 | 51.65981 | 85.62749 | 33062 ft | 508 kts | 138° |
| 2026-05-07 16:41 | 51.60827 | 85.70555 | 33081 ft | 508 kts | 138° |
| 2026-05-07 16:41 | 51.55655 | 85.78360 | 33077 ft | 509 kts | 139° |
| 2026-05-07 16:42 | 51.50517 | 85.86090 | 33079 ft | 510 kts | 139° |
| 2026-05-07 16:42 | 51.45327 | 85.93873 | 33083 ft | 510 kts | 139° |
| 2026-05-07 16:43 | 51.40138 | 86.01629 | 33088 ft | 510 kts | 139° |
| 2026-05-07 16:43 | 51.34935 | 86.09379 | 33086 ft | 510 kts | 139° |
| 2026-05-07 16:44 | 51.29728 | 86.17114 | 33087 ft | 510 kts | 139° |
| 2026-05-07 16:44 | 51.24542 | 86.24793 | 33079 ft | 510 kts | 139° |
| 2026-05-07 16:45 | 51.19320 | 86.32500 | 33086 ft | 511 kts | 139° |
| 2026-05-07 16:45 | 51.14092 | 86.40191 | 33102 ft | 511 kts | 139° |
| 2026-05-07 16:46 | 51.08850 | 86.47874 | 33113 ft | 511 kts | 139° |
| 2026-05-07 16:46 | 51.03635 | 86.55499 | 33078 ft | 512 kts | 139° |
| 2026-05-07 16:47 | 50.98388 | 86.63145 | 33088 ft | 511 kts | 139° |
| 2026-05-07 16:47 | 50.93145 | 86.70768 | 33097 ft | 510 kts | 139° |
| 2026-05-07 16:48 | 50.87913 | 86.78349 | 33096 ft | 512 kts | 139° |
| 2026-05-07 16:48 | 50.82640 | 86.85963 | 33075 ft | 514 kts | 139° |
| 2026-05-07 16:49 | 50.77351 | 86.93575 | 33091 ft | 515 kts | 140° |
| 2026-05-07 16:49 | 50.72033 | 87.01203 | 33096 ft | 515 kts | 140° |
| 2026-05-07 16:50 | 50.66740 | 87.08774 | 33102 ft | 515 kts | 140° |
| 2026-05-07 16:50 | 50.61412 | 87.16371 | 33080 ft | 515 kts | 140° |
| 2026-05-07 16:51 | 50.56095 | 87.23927 | 33077 ft | 514 kts | 140° |
| 2026-05-07 16:51 | 50.50806 | 87.31420 | 33102 ft | 514 kts | 140° |
| 2026-05-07 16:52 | 50.45469 | 87.38956 | 33095 ft | 515 kts | 140° |
| 2026-05-07 16:52 | 50.40132 | 87.46475 | 33107 ft | 516 kts | 140° |
| 2026-05-07 16:53 | 50.34819 | 87.54065 | 33100 ft | 517 kts | 135° |
| 2026-05-07 16:53 | 50.30343 | 87.62810 | 33119 ft | 518 kts | 124° |
| 2026-05-07 16:54 | 50.26869 | 87.72677 | 33128 ft | 519 kts | 116° |
| 2026-05-07 16:54 | 50.23616 | 87.82806 | 33104 ft | 521 kts | 116° |
| 2026-05-07 16:55 | 50.20332 | 87.92856 | 33116 ft | 523 kts | 117° |
| 2026-05-07 16:55 | 50.16987 | 88.02950 | 33110 ft | 524 kts | 117° |
| 2026-05-07 16:56 | 50.13618 | 88.13058 | 33114 ft | 524 kts | 117° |
| 2026-05-07 16:56 | 50.08562 | 88.28169 | 33114 ft | 524 kts | 117° |
| 2026-05-07 16:57 | 50.05185 | 88.38222 | 33118 ft | 524 kts | 117° |
| 2026-05-07 16:57 | 50.01808 | 88.48231 | 33113 ft | 525 kts | 117° |
| 2026-05-07 16:58 | 49.98403 | 88.58286 | 33116 ft | 525 kts | 117° |
| 2026-05-07 16:58 | 49.94795 | 88.68138 | 33107 ft | 525 kts | 122° |
| 2026-05-07 16:59 | 49.90815 | 88.77667 | 33121 ft | 526 kts | 122° |
| 2026-05-07 16:59 | 49.86823 | 88.87197 | 33126 ft | 526 kts | 122° |
| 2026-05-07 17:00 | 49.82851 | 88.96733 | 33130 ft | 527 kts | 122° |
| 2026-05-07 17:00 | 49.78877 | 89.06269 | 33134 ft | 527 kts | 122° |
| 2026-05-07 17:01 | 49.74907 | 89.15758 | 33151 ft | 529 kts | 122° |
| 2026-05-07 17:01 | 49.70892 | 89.25314 | 33141 ft | 529 kts | 122° |
| 2026-05-07 17:02 | 49.66865 | 89.34868 | 33147 ft | 530 kts | 122° |
| 2026-05-07 17:02 | 49.62833 | 89.44396 | 33148 ft | 530 kts | 122° |
| 2026-05-07 17:03 | 49.58710 | 89.53823 | 33146 ft | 530 kts | 123° |
| 2026-05-07 17:03 | 49.54532 | 89.63197 | 33143 ft | 530 kts | 123° |
| 2026-05-07 17:04 | 49.50360 | 89.72555 | 33123 ft | 529 kts | 123° |
| 2026-05-07 17:04 | 49.46230 | 89.81834 | 33131 ft | 529 kts | 123° |
| 2026-05-07 17:05 | 49.42051 | 89.91192 | 33129 ft | 530 kts | 123° |
| 2026-05-07 17:05 | 49.37861 | 90.00534 | 33135 ft | 530 kts | 123° |
| 2026-05-07 17:06 | 49.33657 | 90.09879 | 33121 ft | 533 kts | 123° |
| 2026-05-07 17:06 | 49.29434 | 90.19237 | 33098 ft | 534 kts | 123° |
| 2026-05-07 17:07 | 49.25198 | 90.28588 | 33095 ft | 535 kts | 123° |
| 2026-05-07 17:07 | 49.20959 | 90.37907 | 33090 ft | 535 kts | 123° |
| 2026-05-07 17:08 | 49.16692 | 90.47261 | 33105 ft | 536 kts | 123° |
| 2026-05-07 17:08 | 49.12420 | 90.56596 | 33083 ft | 537 kts | 123° |
| 2026-05-07 17:09 | 49.08143 | 90.65908 | 33059 ft | 538 kts | 123° |
| 2026-05-07 17:09 | 49.03847 | 90.75234 | 33072 ft | 537 kts | 123° |
| 2026-05-07 17:10 | 48.99540 | 90.84535 | 33089 ft | 536 kts | 123° |
| 2026-05-07 17:10 | 48.95213 | 90.93824 | 33088 ft | 537 kts | 123° |
| 2026-05-07 17:11 | 48.90885 | 91.03092 | 33085 ft | 538 kts | 123° |
| 2026-05-07 17:11 | 48.86538 | 91.12374 | 33087 ft | 539 kts | 123° |
| 2026-05-07 17:12 | 48.82915 | 91.20085 | 33077 ft | 539 kts | 124° |
| 2026-05-07 17:12 | 48.77847 | 91.30835 | 33090 ft | 539 kts | 124° |
| 2026-05-07 17:13 | 48.74207 | 91.38530 | 33088 ft | 539 kts | 123° |
| 2026-05-07 17:13 | 48.69829 | 91.47758 | 33074 ft | 539 kts | 123° |
| 2026-05-07 17:14 | 48.65443 | 91.56969 | 33087 ft | 539 kts | 124° |
| 2026-05-07 17:14 | 48.61042 | 91.66176 | 33071 ft | 538 kts | 124° |
| 2026-05-07 17:15 | 48.56646 | 91.75345 | 33115 ft | 538 kts | 123° |
| 2026-05-07 17:15 | 48.52259 | 91.84469 | 33085 ft | 539 kts | 124° |
| 2026-05-07 17:16 | 48.47835 | 91.93634 | 33083 ft | 539 kts | 124° |
| 2026-05-07 17:16 | 48.43409 | 92.02773 | 33067 ft | 539 kts | 124° |
| 2026-05-07 17:17 | 48.38981 | 92.11885 | 33069 ft | 539 kts | 124° |
| 2026-05-07 17:17 | 48.34541 | 92.20990 | 33061 ft | 539 kts | 124° |
| 2026-05-07 17:18 | 48.30123 | 92.30022 | 33053 ft | 538 kts | 124° |
| 2026-05-07 17:18 | 48.25684 | 92.39067 | 33052 ft | 538 kts | 124° |
| 2026-05-07 17:19 | 48.21231 | 92.48112 | 33040 ft | 538 kts | 124° |
| 2026-05-07 17:19 | 48.16777 | 92.57131 | 33072 ft | 537 kts | 124° |
| 2026-05-07 17:20 | 48.12324 | 92.66109 | 33039 ft | 536 kts | 124° |
| 2026-05-07 17:20 | 48.07903 | 92.74996 | 33053 ft | 535 kts | 124° |
| 2026-05-07 17:21 | 48.03457 | 92.83909 | 33037 ft | 534 kts | 124° |
| 2026-05-07 17:21 | 47.99008 | 92.92803 | 33029 ft | 534 kts | 124° |
| 2026-05-07 17:22 | 47.94562 | 93.01662 | 33035 ft | 533 kts | 125° |
| 2026-05-07 17:22 | 47.90114 | 93.10496 | 33025 ft | 531 kts | 125° |
| 2026-05-07 17:23 | 47.85674 | 93.19280 | 33025 ft | 530 kts | 125° |
| 2026-05-07 17:23 | 47.81227 | 93.28044 | 33025 ft | 529 kts | 125° |
| 2026-05-07 17:24 | 47.76815 | 93.36717 | 33024 ft | 529 kts | 125° |
| 2026-05-07 17:24 | 47.72356 | 93.45458 | 33016 ft | 529 kts | 125° |
| 2026-05-07 17:25 | 47.67908 | 93.54151 | 33021 ft | 528 kts | 126° |
| 2026-05-07 17:25 | 47.63445 | 93.62844 | 33024 ft | 528 kts | 126° |
| 2026-05-07 17:26 | 47.58982 | 93.71511 | 33023 ft | 528 kts | 126° |
| 2026-05-07 17:26 | 47.54542 | 93.80104 | 33020 ft | 529 kts | 126° |
| 2026-05-07 17:27 | 47.50056 | 93.88759 | 33013 ft | 529 kts | 126° |
| 2026-05-07 17:27 | 47.45569 | 93.97391 | 33016 ft | 529 kts | 126° |
| 2026-05-07 17:28 | 47.41073 | 94.06012 | 33037 ft | 529 kts | 126° |
| 2026-05-07 17:28 | 47.36571 | 94.14615 | 33033 ft | 529 kts | 126° |
| 2026-05-07 17:29 | 47.32065 | 94.23201 | 33019 ft | 529 kts | 126° |
| 2026-05-07 17:29 | 47.27575 | 94.31730 | 33013 ft | 528 kts | 126° |
| 2026-05-07 17:30 | 47.23070 | 94.40260 | 33022 ft | 527 kts | 126° |
| 2026-05-07 17:30 | 47.18559 | 94.48774 | 33016 ft | 527 kts | 126° |
| 2026-05-07 17:31 | 47.14069 | 94.57224 | 33030 ft | 527 kts | 127° |
| 2026-05-07 17:31 | 47.09549 | 94.65703 | 33016 ft | 526 kts | 127° |
| 2026-05-07 17:32 | 47.05033 | 94.74151 | 33017 ft | 525 kts | 127° |
| 2026-05-07 17:32 | 47.00521 | 94.82565 | 33024 ft | 524 kts | 127° |
| 2026-05-07 17:33 | 46.96009 | 94.90952 | 33026 ft | 524 kts | 127° |
| 2026-05-07 17:33 | 46.91522 | 94.99268 | 33036 ft | 523 kts | 127° |
| 2026-05-07 17:34 | 46.87007 | 95.07612 | 33033 ft | 522 kts | 127° |
| 2026-05-07 17:34 | 46.82495 | 95.15923 | 33022 ft | 520 kts | 128° |
| 2026-05-07 17:35 | 46.78001 | 95.24178 | 33031 ft | 518 kts | 128° |
| 2026-05-07 17:35 | 46.73519 | 95.32386 | 33032 ft | 516 kts | 128° |
| 2026-05-07 17:36 | 46.69062 | 95.40525 | 33027 ft | 516 kts | 128° |
| 2026-05-07 17:36 | 46.64583 | 95.48683 | 33011 ft | 516 kts | 128° |
| 2026-05-07 17:37 | 46.60083 | 95.56842 | 33009 ft | 516 kts | 128° |
| 2026-05-07 17:37 | 46.55567 | 95.65002 | 33005 ft | 517 kts | 129° |
| 2026-05-07 17:38 | 46.51037 | 95.73169 | 33015 ft | 519 kts | 129° |
| 2026-05-07 17:38 | 46.46493 | 95.81337 | 32995 ft | 520 kts | 129° |
| 2026-05-07 17:39 | 46.41961 | 95.89461 | 33002 ft | 521 kts | 129° |
| 2026-05-07 17:39 | 46.37394 | 95.97624 | 32988 ft | 520 kts | 129° |
| 2026-05-07 17:40 | 46.32854 | 96.05715 | 32990 ft | 520 kts | 130° |
| 2026-05-07 17:40 | 46.28276 | 96.13850 | 32991 ft | 520 kts | 130° |
| 2026-05-07 17:41 | 46.23725 | 96.21915 | 32991 ft | 519 kts | 130° |
| 2026-05-07 17:41 | 46.19139 | 96.30017 | 32956 ft | 518 kts | 130° |
| 2026-05-07 17:42 | 46.14573 | 96.38062 | 32982 ft | 517 kts | 130° |
| 2026-05-07 17:42 | 46.10044 | 96.46012 | 32981 ft | 515 kts | 130° |
| 2026-05-07 17:43 | 46.05501 | 96.53968 | 33005 ft | 513 kts | 131° |
| 2026-05-07 17:43 | 46.00965 | 96.61891 | 33001 ft | 512 kts | 131° |
| 2026-05-07 17:44 | 45.96457 | 96.69742 | 32954 ft | 511 kts | 131° |
| 2026-05-07 17:44 | 45.91909 | 96.77640 | 32988 ft | 511 kts | 131° |
| 2026-05-07 17:45 | 45.87364 | 96.85510 | 32977 ft | 511 kts | 131° |
| 2026-05-07 17:45 | 45.82849 | 96.93305 | 32974 ft | 510 kts | 131° |
| 2026-05-07 17:46 | 45.78308 | 97.01126 | 32977 ft | 510 kts | 131° |
| 2026-05-07 17:46 | 45.73762 | 97.08931 | 32960 ft | 510 kts | 132° |
| 2026-05-07 17:47 | 45.69213 | 97.16720 | 32971 ft | 510 kts | 132° |
| 2026-05-07 17:47 | 45.64654 | 97.24505 | 32961 ft | 510 kts | 132° |
| 2026-05-07 17:48 | 45.60093 | 97.32271 | 32969 ft | 510 kts | 132° |
| 2026-05-07 17:48 | 45.55531 | 97.40018 | 32963 ft | 510 kts | 132° |
| 2026-05-07 17:49 | 45.50958 | 97.47762 | 32960 ft | 510 kts | 132° |
| 2026-05-07 17:49 | 45.46384 | 97.55486 | 32955 ft | 510 kts | 132° |
| 2026-05-07 17:50 | 45.41834 | 97.63149 | 32975 ft | 510 kts | 133° |
| 2026-05-07 17:50 | 45.37237 | 97.70869 | 32972 ft | 510 kts | 133° |
| 2026-05-07 17:51 | 45.32644 | 97.78560 | 32977 ft | 510 kts | 133° |
| 2026-05-07 17:51 | 45.28053 | 97.86229 | 32972 ft | 509 kts | 133° |
| 2026-05-07 17:52 | 45.24229 | 97.92601 | 32977 ft | 509 kts | 133° |
| 2026-05-07 17:52 | 45.19654 | 98.00204 | 32985 ft | 509 kts | 133° |
| 2026-05-07 17:53 | 45.15036 | 98.07859 | 32978 ft | 509 kts | 133° |
| 2026-05-07 17:53 | 45.10417 | 98.15491 | 32979 ft | 509 kts | 133° |
| 2026-05-07 17:54 | 45.05828 | 98.23059 | 32968 ft | 509 kts | 133° |
| 2026-05-07 17:54 | 45.01197 | 98.30671 | 32971 ft | 509 kts | 133° |
| 2026-05-07 17:55 | 44.96596 | 98.38214 | 32971 ft | 509 kts | 133° |
| 2026-05-07 17:55 | 44.91964 | 98.45787 | 32971 ft | 509 kts | 133° |
| 2026-05-07 17:56 | 44.87327 | 98.53349 | 32975 ft | 509 kts | 133° |
| 2026-05-07 17:56 | 44.82688 | 98.60895 | 32961 ft | 509 kts | 133° |
| 2026-05-07 17:57 | 44.78037 | 98.68437 | 32952 ft | 509 kts | 133° |
| 2026-05-07 17:57 | 44.73388 | 98.75958 | 32958 ft | 509 kts | 133° |
| 2026-05-07 17:58 | 44.68737 | 98.83462 | 32954 ft | 509 kts | 133° |
| 2026-05-07 17:58 | 44.64075 | 98.90965 | 32943 ft | 509 kts | 133° |
| 2026-05-07 17:59 | 44.59441 | 98.98401 | 32948 ft | 509 kts | 133° |
| 2026-05-07 17:59 | 44.54765 | 99.05885 | 32950 ft | 509 kts | 133° |
| 2026-05-07 18:00 | 44.50100 | 99.13332 | 32951 ft | 509 kts | 133° |
| 2026-05-07 18:00 | 44.45414 | 99.20792 | 32951 ft | 509 kts | 133° |
| 2026-05-07 18:01 | 44.40761 | 99.28181 | 32935 ft | 508 kts | 133° |
| 2026-05-07 18:01 | 44.36082 | 99.35593 | 32947 ft | 508 kts | 133° |
| 2026-05-07 18:02 | 44.29040 | 99.46709 | 32962 ft | 509 kts | 134° |
| 2026-05-07 18:03 | 44.24337 | 99.54109 | 32952 ft | 509 kts | 134° |
| 2026-05-07 18:03 | 44.19637 | 99.61486 | 32938 ft | 509 kts | 134° |
| 2026-05-07 18:04 | 44.14930 | 99.68855 | 32934 ft | 509 kts | 134° |
| 2026-05-07 18:04 | 44.10210 | 99.76222 | 32932 ft | 509 kts | 134° |
| 2026-05-07 18:05 | 44.05514 | 99.83536 | 32943 ft | 509 kts | 134° |
| 2026-05-07 18:05 | 44.00780 | 99.90887 | 32931 ft | 509 kts | 134° |
| 2026-05-07 18:06 | 43.96043 | 99.98227 | 32921 ft | 509 kts | 134° |
| 2026-05-07 18:06 | 43.91345 | 100.05486 | 32917 ft | 508 kts | 134° |
| 2026-05-07 18:07 | 43.86612 | 100.12781 | 32932 ft | 508 kts | 134° |
| 2026-05-07 18:07 | 43.81878 | 100.20059 | 32935 ft | 508 kts | 134° |
| 2026-05-07 18:08 | 43.77142 | 100.27321 | 32936 ft | 508 kts | 134° |
| 2026-05-07 18:08 | 43.72433 | 100.34524 | 32935 ft | 507 kts | 134° |
| 2026-05-07 18:09 | 43.67685 | 100.41766 | 32942 ft | 506 kts | 134° |
| 2026-05-07 18:09 | 43.62978 | 100.48929 | 32943 ft | 506 kts | 134° |
| 2026-05-07 18:10 | 43.58238 | 100.56125 | 32947 ft | 505 kts | 134° |
| 2026-05-07 18:10 | 43.53508 | 100.63287 | 32959 ft | 504 kts | 134° |
| 2026-05-07 18:11 | 43.48772 | 100.70440 | 32958 ft | 504 kts | 134° |
| 2026-05-07 18:11 | 43.44068 | 100.77530 | 32969 ft | 504 kts | 134° |
| 2026-05-07 18:12 | 43.39340 | 100.84638 | 32976 ft | 503 kts | 134° |
| 2026-05-07 18:12 | 43.34590 | 100.91748 | 32974 ft | 504 kts | 135° |
| 2026-05-07 18:13 | 43.29837 | 100.98842 | 32966 ft | 504 kts | 134° |
| 2026-05-07 18:13 | 43.25089 | 101.05917 | 32974 ft | 503 kts | 134° |
| 2026-05-07 18:14 | 43.20344 | 101.12970 | 32981 ft | 503 kts | 134° |
| 2026-05-07 18:14 | 43.15615 | 101.19983 | 32977 ft | 503 kts | 134° |
| 2026-05-07 18:15 | 43.10860 | 101.27017 | 32975 ft | 502 kts | 134° |
| 2026-05-07 18:15 | 43.06105 | 101.34033 | 32969 ft | 502 kts | 134° |
| 2026-05-07 18:16 | 43.01356 | 101.41024 | 32986 ft | 502 kts | 134° |
| 2026-05-07 18:16 | 42.96603 | 101.48003 | 32984 ft | 502 kts | 134° |
| 2026-05-07 18:17 | 42.91867 | 101.54942 | 32988 ft | 502 kts | 135° |
| 2026-05-07 18:17 | 42.87095 | 101.61916 | 32990 ft | 502 kts | 135° |
| 2026-05-07 18:18 | 42.82324 | 101.68870 | 32985 ft | 502 kts | 134° |
| 2026-05-07 18:18 | 42.77549 | 101.75815 | 32997 ft | 501 kts | 134° |
| 2026-05-07 18:19 | 42.72800 | 101.82705 | 32989 ft | 501 kts | 135° |
| 2026-05-07 18:19 | 42.68006 | 101.89643 | 32992 ft | 501 kts | 135° |
| 2026-05-07 18:20 | 42.63254 | 101.96504 | 32987 ft | 501 kts | 135° |
| 2026-05-07 18:20 | 42.58439 | 102.03439 | 32989 ft | 501 kts | 135° |
| 2026-05-07 18:21 | 42.53675 | 102.10285 | 32989 ft | 501 kts | 135° |
| 2026-05-07 18:21 | 42.48876 | 102.17163 | 32986 ft | 501 kts | 135° |
| 2026-05-07 18:22 | 42.44079 | 102.24024 | 32984 ft | 501 kts | 135° |
| 2026-05-07 18:22 | 42.39272 | 102.30881 | 32989 ft | 501 kts | 135° |
| 2026-05-07 18:23 | 42.34466 | 102.37722 | 32980 ft | 501 kts | 135° |
| 2026-05-07 18:23 | 42.29645 | 102.44568 | 32983 ft | 502 kts | 135° |
| 2026-05-07 18:24 | 42.24854 | 102.51355 | 32989 ft | 502 kts | 135° |
| 2026-05-07 18:24 | 42.20032 | 102.58171 | 32992 ft | 503 kts | 135° |
| 2026-05-07 18:25 | 42.15192 | 102.64995 | 32985 ft | 503 kts | 135° |
| 2026-05-07 18:25 | 42.10353 | 102.71806 | 32977 ft | 503 kts | 135° |
| 2026-05-07 18:26 | 42.05394 | 102.78462 | 32983 ft | 501 kts | 143° |
| 2026-05-07 18:26 | 41.99438 | 102.83240 | 32999 ft | 496 kts | 160° |
| 2026-05-07 18:27 | 41.92921 | 102.85992 | 32992 ft | 493 kts | 167° |
| 2026-05-07 18:27 | 41.86293 | 102.88535 | 32981 ft | 494 kts | 167° |
| 2026-05-07 18:28 | 41.79688 | 102.91157 | 32988 ft | 495 kts | 167° |
| 2026-05-07 18:28 | 41.73076 | 102.93808 | 32992 ft | 496 kts | 167° |
| 2026-05-07 18:29 | 41.66453 | 102.96454 | 32973 ft | 496 kts | 167° |
| 2026-05-07 18:29 | 41.59807 | 102.98612 | 32978 ft | 491 kts | 176° |
| 2026-05-07 18:30 | 41.53024 | 102.99131 | 32989 ft | 485 kts | 186° |
| 2026-05-07 18:30 | 41.46265 | 102.98945 | 32988 ft | 486 kts | 185° |
| 2026-05-07 18:31 | 41.39478 | 102.98842 | 32985 ft | 488 kts | 187° |
| 2026-05-07 18:31 | 41.32719 | 102.98781 | 32995 ft | 490 kts | 186° |
| 2026-05-07 18:32 | 41.25885 | 102.98806 | 33002 ft | 491 kts | 186° |
| 2026-05-07 18:32 | 41.20176 | 102.98848 | 33001 ft | 492 kts | 187° |
| 2026-05-07 18:33 | 41.13330 | 102.98883 | 33009 ft | 492 kts | 187° |
| 2026-05-07 18:33 | 41.06481 | 102.98910 | 33018 ft | 491 kts | 187° |
| 2026-05-07 18:34 | 40.99642 | 102.98936 | 33022 ft | 490 kts | 187° |
| 2026-05-07 18:34 | 40.92832 | 102.98963 | 33040 ft | 489 kts | 187° |
| 2026-05-07 18:34 | 40.89446 | 102.98974 | 33177 ft | 492 kts | 187° |
| 2026-05-07 18:35 | 40.86018 | 102.98986 | 33598 ft | 490 kts | 187° |
| 2026-05-07 18:35 | 40.82623 | 102.99002 | 34095 ft | 486 kts | 188° |
| 2026-05-07 18:35 | 40.79245 | 102.99018 | 34521 ft | 483 kts | 187° |
| 2026-05-07 18:35 | 40.75893 | 102.99033 | 34871 ft | 481 kts | 187° |
| 2026-05-07 18:36 | 40.72540 | 102.99044 | 34983 ft | 484 kts | 187° |
| 2026-05-07 18:36 | 40.65829 | 102.99064 | 35076 ft | 484 kts | 187° |
| 2026-05-07 18:37 | 40.59107 | 102.99090 | 35042 ft | 482 kts | 187° |
| 2026-05-07 18:37 | 40.52402 | 102.99116 | 35065 ft | 480 kts | 187° |
| 2026-05-07 18:38 | 40.45708 | 102.99141 | 35068 ft | 480 kts | 187° |
| 2026-05-07 18:38 | 40.39066 | 102.99164 | 35067 ft | 480 kts | 187° |
| 2026-05-07 18:39 | 40.32369 | 102.99188 | 35071 ft | 480 kts | 187° |
| 2026-05-07 18:39 | 40.25668 | 102.99213 | 35064 ft | 481 kts | 187° |
| 2026-05-07 18:40 | 40.18961 | 102.99237 | 35071 ft | 481 kts | 187° |
| 2026-05-07 18:40 | 40.12294 | 102.99262 | 35061 ft | 482 kts | 187° |
| 2026-05-07 18:41 | 40.05579 | 102.99287 | 35071 ft | 482 kts | 187° |
| 2026-05-07 18:41 | 39.98868 | 102.99312 | 35077 ft | 482 kts | 187° |
| 2026-05-07 18:42 | 39.92151 | 102.99336 | 35064 ft | 482 kts | 186° |
| 2026-05-07 18:42 | 39.85427 | 102.99361 | 35079 ft | 483 kts | 186° |
| 2026-05-07 18:43 | 39.78693 | 102.99386 | 35083 ft | 483 kts | 186° |
| 2026-05-07 18:43 | 39.71990 | 102.99410 | 35070 ft | 483 kts | 186° |
| 2026-05-07 18:44 | 39.65250 | 102.99434 | 35087 ft | 484 kts | 186° |
| 2026-05-07 18:44 | 39.58498 | 102.99459 | 35081 ft | 485 kts | 186° |
| 2026-05-07 18:45 | 39.51784 | 102.99484 | 35070 ft | 485 kts | 186° |
| 2026-05-07 18:45 | 39.45034 | 102.99513 | 35085 ft | 485 kts | 186° |
| 2026-05-07 18:46 | 39.38266 | 102.99804 | 35078 ft | 491 kts | 178° |
| 2026-05-07 18:46 | 39.31567 | 103.01932 | 35094 ft | 502 kts | 164° |
| 2026-05-07 18:47 | 39.25137 | 103.05598 | 35067 ft | 505 kts | 160° |
| 2026-05-07 18:47 | 39.18758 | 103.09382 | 35081 ft | 504 kts | 161° |
| 2026-05-07 18:48 | 39.12375 | 103.13106 | 35097 ft | 503 kts | 161° |
| 2026-05-07 18:48 | 39.06015 | 103.16764 | 35090 ft | 502 kts | 161° |
| 2026-05-07 18:49 | 38.99634 | 103.20415 | 35085 ft | 500 kts | 161° |
| 2026-05-07 18:49 | 38.93279 | 103.24046 | 35096 ft | 499 kts | 161° |
| 2026-05-07 18:50 | 38.86940 | 103.27662 | 35094 ft | 498 kts | 161° |
| 2026-05-07 18:50 | 38.80640 | 103.31250 | 35085 ft | 497 kts | 161° |
| 2026-05-07 18:51 | 38.74307 | 103.34850 | 35094 ft | 497 kts | 161° |
| 2026-05-07 18:51 | 38.67970 | 103.38445 | 35113 ft | 496 kts | 161° |
| 2026-05-07 18:52 | 38.61650 | 103.42024 | 35119 ft | 497 kts | 161° |
| 2026-05-07 18:52 | 38.55360 | 103.45578 | 35106 ft | 497 kts | 161° |
| 2026-05-07 18:53 | 38.49025 | 103.49151 | 35122 ft | 497 kts | 161° |
| 2026-05-07 18:53 | 38.42670 | 103.52730 | 35132 ft | 498 kts | 162° |
| 2026-05-07 18:54 | 38.36312 | 103.56301 | 35134 ft | 499 kts | 162° |
| 2026-05-07 18:54 | 38.29980 | 103.59852 | 35131 ft | 499 kts | 162° |
| 2026-05-07 18:55 | 38.23619 | 103.63413 | 35140 ft | 499 kts | 162° |
| 2026-05-07 18:55 | 38.17259 | 103.66967 | 35151 ft | 499 kts | 162° |
| 2026-05-07 18:56 | 38.10894 | 103.70515 | 35156 ft | 499 kts | 162° |
| 2026-05-07 18:56 | 38.04529 | 103.74058 | 35151 ft | 499 kts | 162° |
| 2026-05-07 18:57 | 37.98200 | 103.77574 | 35157 ft | 499 kts | 162° |
| 2026-05-07 18:57 | 37.91841 | 103.81100 | 35163 ft | 498 kts | 162° |
| 2026-05-07 18:58 | 37.85493 | 103.84613 | 35165 ft | 498 kts | 162° |
| 2026-05-07 18:58 | 37.79140 | 103.88122 | 35167 ft | 497 kts | 162° |
| 2026-05-07 18:59 | 37.72795 | 103.91621 | 35169 ft | 497 kts | 162° |
| 2026-05-07 18:59 | 37.66441 | 103.95119 | 35178 ft | 498 kts | 162° |
| 2026-05-07 19:00 | 37.60088 | 103.98609 | 35180 ft | 498 kts | 162° |
| 2026-05-07 19:00 | 37.53732 | 104.02091 | 35178 ft | 498 kts | 162° |
| 2026-05-07 19:01 | 37.47375 | 104.05570 | 35187 ft | 498 kts | 162° |
| 2026-05-07 19:01 | 37.41048 | 104.09028 | 35194 ft | 498 kts | 162° |
| 2026-05-07 19:02 | 37.34675 | 104.12506 | 35195 ft | 499 kts | 162° |
| 2026-05-07 19:02 | 37.28298 | 104.15964 | 35193 ft | 497 kts | 164° |
| 2026-05-07 19:03 | 37.21791 | 104.18439 | 35207 ft | 486 kts | 176° |
| 2026-05-07 19:03 | 37.15127 | 104.19819 | 35211 ft | 484 kts | 177° |
| 2026-05-07 19:04 | 37.08458 | 104.21224 | 35207 ft | 485 kts | 177° |
| 2026-05-07 19:04 | 37.01799 | 104.22679 | 35222 ft | 486 kts | 177° |
| 2026-05-07 19:05 | 36.95128 | 104.24137 | 35228 ft | 486 kts | 177° |
| 2026-05-07 19:05 | 36.88496 | 104.25568 | 35231 ft | 486 kts | 177° |
| 2026-05-07 19:06 | 36.81823 | 104.27001 | 35229 ft | 486 kts | 177° |
| 2026-05-07 19:06 | 36.71803 | 104.29152 | 35240 ft | 487 kts | 177° |
| 2026-05-07 19:07 | 36.65126 | 104.30582 | 35239 ft | 487 kts | 177° |
| 2026-05-07 19:07 | 36.58473 | 104.32006 | 35221 ft | 487 kts | 178° |
| 2026-05-07 19:08 | 36.51789 | 104.33434 | 35243 ft | 487 kts | 178° |
| 2026-05-07 19:08 | 36.45106 | 104.34366 | 35235 ft | 476 kts | 187° |
| 2026-05-07 19:09 | 36.38494 | 104.34381 | 35249 ft | 475 kts | 187° |
| 2026-05-07 19:09 | 36.31869 | 104.34428 | 35243 ft | 475 kts | 187° |
| 2026-05-07 19:10 | 36.25292 | 104.34520 | 35260 ft | 475 kts | 187° |
| 2026-05-07 19:10 | 36.18671 | 104.34617 | 35254 ft | 475 kts | 187° |
| 2026-05-07 19:11 | 36.12035 | 104.34741 | 35243 ft | 475 kts | 186° |
| 2026-05-07 19:11 | 36.05440 | 104.34874 | 35275 ft | 475 kts | 187° |
| 2026-05-07 19:12 | 35.98819 | 104.35002 | 35269 ft | 476 kts | 187° |
| 2026-05-07 19:12 | 35.93306 | 104.35107 | 35273 ft | 476 kts | 187° |
| 2026-05-07 19:13 | 35.86668 | 104.35233 | 35262 ft | 477 kts | 186° |
| 2026-05-07 19:13 | 35.78949 | 104.35372 | 35276 ft | 476 kts | 187° |
| 2026-05-07 19:14 | 35.73428 | 104.35452 | 35273 ft | 477 kts | 187° |
| 2026-05-07 19:14 | 35.66784 | 104.35548 | 35278 ft | 477 kts | 187° |
| 2026-05-07 19:15 | 35.60144 | 104.35647 | 35283 ft | 477 kts | 187° |
| 2026-05-07 19:15 | 35.53505 | 104.35747 | 35275 ft | 477 kts | 187° |
| 2026-05-07 19:16 | 35.46855 | 104.35849 | 35275 ft | 476 kts | 187° |
| 2026-05-07 19:16 | 35.40263 | 104.35955 | 35272 ft | 476 kts | 187° |
| 2026-05-07 19:17 | 35.33632 | 104.36064 | 35268 ft | 475 kts | 186° |
| 2026-05-07 19:17 | 35.26991 | 104.36172 | 35269 ft | 475 kts | 186° |
| 2026-05-07 19:18 | 35.20408 | 104.36277 | 35262 ft | 475 kts | 186° |
| 2026-05-07 19:18 | 35.13796 | 104.36384 | 35247 ft | 474 kts | 186° |
| 2026-05-07 19:19 | 35.07207 | 104.36489 | 35258 ft | 473 kts | 186° |
| 2026-05-07 19:19 | 35.00671 | 104.36594 | 35257 ft | 472 kts | 186° |
| 2026-05-07 19:20 | 34.94100 | 104.36699 | 35251 ft | 472 kts | 186° |
| 2026-05-07 19:20 | 34.87542 | 104.36803 | 35244 ft | 471 kts | 186° |
| 2026-05-07 19:21 | 34.80968 | 104.36907 | 35245 ft | 471 kts | 186° |
| 2026-05-07 19:21 | 34.74426 | 104.37012 | 35252 ft | 470 kts | 186° |
| 2026-05-07 19:22 | 34.67889 | 104.37115 | 35249 ft | 470 kts | 186° |
| 2026-05-07 19:22 | 34.61346 | 104.37219 | 35243 ft | 470 kts | 185° |
| 2026-05-07 19:23 | 34.54807 | 104.37321 | 35248 ft | 470 kts | 185° |
| 2026-05-07 19:23 | 34.48299 | 104.37425 | 35236 ft | 469 kts | 185° |
| 2026-05-07 19:24 | 34.41772 | 104.37529 | 35259 ft | 468 kts | 186° |
| 2026-05-07 19:24 | 34.35234 | 104.37629 | 35228 ft | 468 kts | 185° |
| 2026-05-07 19:25 | 34.28723 | 104.37741 | 35244 ft | 467 kts | 185° |
| 2026-05-07 19:25 | 34.22247 | 104.37833 | 35239 ft | 467 kts | 186° |
| 2026-05-07 19:26 | 34.15759 | 104.37931 | 35243 ft | 465 kts | 185° |
| 2026-05-07 19:26 | 34.09281 | 104.38036 | 35229 ft | 466 kts | 185° |
| 2026-05-07 19:27 | 34.02788 | 104.38141 | 35217 ft | 466 kts | 185° |
| 2026-05-07 19:27 | 33.96302 | 104.38241 | 35220 ft | 466 kts | 185° |
| 2026-05-07 19:28 | 33.89807 | 104.38340 | 35214 ft | 466 kts | 185° |
| 2026-05-07 19:28 | 33.83348 | 104.38441 | 35218 ft | 468 kts | 185° |
| 2026-05-07 19:29 | 33.76793 | 104.38541 | 35220 ft | 473 kts | 185° |
| 2026-05-07 19:29 | 33.70185 | 104.38646 | 35218 ft | 475 kts | 185° |
| 2026-05-07 19:30 | 33.63548 | 104.38907 | 35210 ft | 481 kts | 178° |
| 2026-05-07 19:30 | 33.57005 | 104.41150 | 35203 ft | 497 kts | 162° |
| 2026-05-07 19:31 | 33.51009 | 104.45317 | 35220 ft | 504 kts | 154° |
| 2026-05-07 19:31 | 33.45049 | 104.49742 | 35213 ft | 503 kts | 155° |
| 2026-05-07 19:32 | 33.38880 | 104.53547 | 35185 ft | 491 kts | 167° |
| 2026-05-07 19:32 | 33.32344 | 104.55361 | 35183 ft | 475 kts | 181° |
| 2026-05-07 19:33 | 33.25814 | 104.55752 | 35208 ft | 473 kts | 184° |
| 2026-05-07 19:33 | 33.19204 | 104.56101 | 35209 ft | 476 kts | 183° |
| 2026-05-07 19:34 | 33.12562 | 104.56496 | 35215 ft | 478 kts | 183° |
| 2026-05-07 19:34 | 33.05909 | 104.56923 | 35218 ft | 478 kts | 183° |
| 2026-05-07 19:35 | 32.99276 | 104.57348 | 35224 ft | 481 kts | 183° |
| 2026-05-07 19:35 | 32.92554 | 104.57771 | 35216 ft | 482 kts | 183° |
| 2026-05-07 19:36 | 32.85905 | 104.58206 | 35229 ft | 476 kts | 183° |
| 2026-05-07 19:36 | 32.79376 | 104.59593 | 35237 ft | 491 kts | 159° |
| 2026-05-07 19:37 | 32.76537 | 104.61849 | 35236 ft | 506 kts | 142° |
| 2026-05-07 19:37 | 32.74197 | 104.65040 | 35223 ft | 518 kts | 127° |
| 2026-05-07 19:37 | 32.72616 | 104.68911 | 35241 ft | 524 kts | 114° |
| 2026-05-07 19:37 | 32.71311 | 104.72978 | 35206 ft | 526 kts | 114° |
| 2026-05-07 19:38 | 32.68725 | 104.81115 | 35249 ft | 525 kts | 114° |
| 2026-05-07 19:38 | 32.66055 | 104.89222 | 35248 ft | 528 kts | 115° |
| 2026-05-07 19:39 | 32.63309 | 104.97338 | 35236 ft | 530 kts | 116° |
| 2026-05-07 19:39 | 32.60553 | 105.05412 | 35227 ft | 532 kts | 116° |
| 2026-05-07 19:40 | 32.57762 | 105.13573 | 35211 ft | 531 kts | 116° |
| 2026-05-07 19:40 | 32.55007 | 105.21640 | 35207 ft | 530 kts | 116° |
| 2026-05-07 19:41 | 32.52241 | 105.29728 | 35192 ft | 528 kts | 116° |
| 2026-05-07 19:41 | 32.49477 | 105.37792 | 35194 ft | 526 kts | 116° |
| 2026-05-07 19:42 | 32.46713 | 105.45818 | 35200 ft | 526 kts | 116° |
| 2026-05-07 19:42 | 32.43943 | 105.53846 | 35183 ft | 526 kts | 116° |
| 2026-05-07 19:43 | 32.41182 | 105.61838 | 35184 ft | 527 kts | 116° |
| 2026-05-07 19:43 | 32.38395 | 105.69872 | 35182 ft | 528 kts | 116° |
| 2026-05-07 19:44 | 32.35511 | 105.77865 | 35179 ft | 528 kts | 117° |
| 2026-05-07 19:44 | 32.32563 | 105.85840 | 35179 ft | 529 kts | 118° |
| 2026-05-07 19:45 | 32.29620 | 105.93819 | 35180 ft | 530 kts | 117° |
| 2026-05-07 19:45 | 32.26677 | 106.01829 | 35171 ft | 531 kts | 117° |
| 2026-05-07 19:46 | 32.23728 | 106.09849 | 35174 ft | 531 kts | 117° |
| 2026-05-07 19:46 | 32.20775 | 106.17853 | 35166 ft | 532 kts | 117° |
| 2026-05-07 19:47 | 32.17810 | 106.25853 | 35163 ft | 532 kts | 118° |
| 2026-05-07 19:47 | 32.14863 | 106.33817 | 35186 ft | 531 kts | 118° |
| 2026-05-07 19:48 | 32.11896 | 106.41807 | 35170 ft | 531 kts | 118° |
| 2026-05-07 19:48 | 32.08924 | 106.49786 | 35174 ft | 531 kts | 118° |
| 2026-05-07 19:49 | 32.05933 | 106.57776 | 35190 ft | 532 kts | 118° |
| 2026-05-07 19:49 | 32.02952 | 106.65758 | 35176 ft | 533 kts | 118° |
| 2026-05-07 19:50 | 31.99967 | 106.73717 | 35148 ft | 535 kts | 118° |
| 2026-05-07 19:50 | 31.96931 | 106.81783 | 35178 ft | 536 kts | 118° |
| 2026-05-07 19:51 | 31.93917 | 106.89781 | 35185 ft | 536 kts | 118° |
| 2026-05-07 19:51 | 31.90881 | 106.97836 | 35181 ft | 539 kts | 118° |
| 2026-05-07 19:52 | 31.88341 | 107.04543 | 35175 ft | 539 kts | 118° |
| 2026-05-07 19:52 | 31.85276 | 107.12622 | 35185 ft | 541 kts | 118° |
| 2026-05-07 19:53 | 31.83597 | 107.16539 | 35151 ft | 532 kts | 129° |
| 2026-05-07 19:53 | 31.81233 | 107.19787 | 35182 ft | 515 kts | 147° |
| 2026-05-07 19:53 | 31.78285 | 107.22033 | 35189 ft | 497 kts | 164° |
| 2026-05-07 19:53 | 31.75050 | 107.23273 | 35180 ft | 483 kts | 178° |
| 2026-05-07 19:54 | 31.68467 | 107.23754 | 35158 ft | 473 kts | 192° |
| 2026-05-07 19:54 | 31.65256 | 107.23139 | 35164 ft | 458 kts | 207° |
| 2026-05-07 19:54 | 31.62362 | 107.21719 | 35197 ft | 449 kts | 211° |
| 2026-05-07 19:55 | 31.56674 | 107.18630 | 35180 ft | 451 kts | 212° |
| 2026-05-07 19:55 | 31.50928 | 107.15569 | 35172 ft | 454 kts | 211° |
| 2026-05-07 19:56 | 31.45181 | 107.12590 | 35170 ft | 454 kts | 210° |
| 2026-05-07 19:56 | 31.39389 | 107.09625 | 35154 ft | 451 kts | 211° |
| 2026-05-07 19:57 | 31.33673 | 107.06699 | 35159 ft | 449 kts | 211° |
| 2026-05-07 19:57 | 31.27962 | 107.03778 | 35166 ft | 447 kts | 211° |
| 2026-05-07 19:58 | 31.22273 | 107.00871 | 35137 ft | 445 kts | 211° |
| 2026-05-07 19:58 | 31.19449 | 106.99427 | 34630 ft | 451 kts | 211° |
| 2026-05-07 19:58 | 31.16544 | 106.97945 | 34129 ft | 447 kts | 211° |
| 2026-05-07 19:59 | 31.13741 | 106.96521 | 33549 ft | 443 kts | 211° |
| 2026-05-07 19:59 | 31.10928 | 106.95092 | 33010 ft | 439 kts | 211° |
| 2026-05-07 19:59 | 31.08142 | 106.93676 | 32488 ft | 435 kts | 211° |
| 2026-05-07 19:59 | 31.05383 | 106.92272 | 31967 ft | 430 kts | 211° |
| 2026-05-07 20:00 | 31.02645 | 106.90883 | 31483 ft | 426 kts | 211° |
| 2026-05-07 20:00 | 30.99932 | 106.89504 | 30983 ft | 424 kts | 211° |
| 2026-05-07 20:00 | 30.97253 | 106.88141 | 30498 ft | 421 kts | 211° |
| 2026-05-07 20:00 | 30.94569 | 106.86776 | 29919 ft | 419 kts | 211° |
| 2026-05-07 20:01 | 30.91895 | 106.85419 | 29377 ft | 416 kts | 210° |
| 2026-05-07 20:01 | 30.89254 | 106.84081 | 28864 ft | 413 kts | 210° |
| 2026-05-07 20:01 | 30.86630 | 106.82751 | 28363 ft | 409 kts | 210° |
| 2026-05-07 20:01 | 30.84046 | 106.81443 | 27857 ft | 406 kts | 210° |
| 2026-05-07 20:02 | 30.81462 | 106.80135 | 27390 ft | 403 kts | 210° |
| 2026-05-07 20:02 | 30.78883 | 106.78831 | 26913 ft | 401 kts | 210° |
| 2026-05-07 20:02 | 30.76339 | 106.77544 | 26440 ft | 398 kts | 210° |
| 2026-05-07 20:02 | 30.73805 | 106.76263 | 25969 ft | 396 kts | 209° |
| 2026-05-07 20:03 | 30.71277 | 106.74986 | 25506 ft | 394 kts | 209° |
| 2026-05-07 20:03 | 30.68778 | 106.73724 | 25030 ft | 393 kts | 210° |
| 2026-05-07 20:03 | 30.66271 | 106.72459 | 24568 ft | 392 kts | 210° |
| 2026-05-07 20:03 | 30.63769 | 106.71197 | 24104 ft | 391 kts | 209° |
| 2026-05-07 20:04 | 30.61269 | 106.69937 | 23618 ft | 390 kts | 210° |
| 2026-05-07 20:04 | 30.58820 | 106.68583 | 23102 ft | 386 kts | 212° |
| 2026-05-07 20:04 | 30.56423 | 106.67194 | 22642 ft | 383 kts | 212° |
| 2026-05-07 20:04 | 30.54076 | 106.65825 | 22180 ft | 381 kts | 212° |
| 2026-05-07 20:05 | 30.51715 | 106.64442 | 21724 ft | 378 kts | 212° |
| 2026-05-07 20:05 | 30.49369 | 106.63076 | 21283 ft | 375 kts | 212° |
| 2026-05-07 20:05 | 30.47043 | 106.61723 | 20850 ft | 373 kts | 212° |
| 2026-05-07 20:05 | 30.44723 | 106.60374 | 20403 ft | 372 kts | 211° |
| 2026-05-07 20:06 | 30.42410 | 106.59031 | 19972 ft | 371 kts | 211° |
| 2026-05-07 20:06 | 30.40101 | 106.57692 | 19532 ft | 370 kts | 211° |
| 2026-05-07 20:06 | 30.37799 | 106.56357 | 19087 ft | 370 kts | 211° |
| 2026-05-07 20:06 | 30.35500 | 106.55026 | 18639 ft | 370 kts | 210° |
| 2026-05-07 20:07 | 30.33193 | 106.53697 | 18156 ft | 370 kts | 209° |
| 2026-05-07 20:07 | 30.30786 | 106.52633 | 17814 ft | 370 kts | 200° |
| 2026-05-07 20:07 | 30.28296 | 106.51931 | 17621 ft | 367 kts | 194° |
| 2026-05-07 20:07 | 30.25774 | 106.51529 | 17382 ft | 364 kts | 190° |
| 2026-05-07 20:08 | 30.23266 | 106.51215 | 17063 ft | 363 kts | 189° |
| 2026-05-07 20:08 | 30.20757 | 106.50908 | 16722 ft | 362 kts | 189° |
| 2026-05-07 20:08 | 30.18259 | 106.50602 | 16420 ft | 360 kts | 189° |
| 2026-05-07 20:08 | 30.15771 | 106.50295 | 16127 ft | 359 kts | 189° |
| 2026-05-07 20:09 | 30.13321 | 106.49989 | 15848 ft | 357 kts | 189° |
| 2026-05-07 20:09 | 30.10860 | 106.49680 | 15578 ft | 355 kts | 188° |
| 2026-05-07 20:09 | 30.08412 | 106.49370 | 15303 ft | 353 kts | 188° |
| 2026-05-07 20:10 | 30.03531 | 106.48750 | 14756 ft | 350 kts | 188° |
| 2026-05-07 20:10 | 30.01115 | 106.48442 | 14479 ft | 349 kts | 188° |
| 2026-05-07 20:10 | 29.98699 | 106.48134 | 14212 ft | 348 kts | 187° |
| 2026-05-07 20:10 | 29.96297 | 106.47829 | 13954 ft | 346 kts | 187° |
| 2026-05-07 20:11 | 29.93904 | 106.47525 | 13665 ft | 345 kts | 187° |
| 2026-05-07 20:11 | 29.91549 | 106.47227 | 13387 ft | 343 kts | 188° |
| 2026-05-07 20:11 | 29.89183 | 106.46928 | 13116 ft | 341 kts | 188° |
| 2026-05-07 20:11 | 29.86829 | 106.46629 | 12858 ft | 340 kts | 188° |
| 2026-05-07 20:12 | 29.84484 | 106.46331 | 12586 ft | 339 kts | 188° |
| 2026-05-07 20:12 | 29.82137 | 106.46033 | 12314 ft | 338 kts | 188° |
| 2026-05-07 20:12 | 29.79807 | 106.45738 | 12037 ft | 337 kts | 188° |
| 2026-05-07 20:12 | 29.77476 | 106.45444 | 11769 ft | 335 kts | 188° |
| 2026-05-07 20:13 | 29.75164 | 106.45149 | 11516 ft | 333 kts | 187° |
| 2026-05-07 20:13 | 29.72866 | 106.44858 | 11263 ft | 332 kts | 187° |
| 2026-05-07 20:13 | 29.70571 | 106.44568 | 11004 ft | 331 kts | 187° |
| 2026-05-07 20:13 | 29.68308 | 106.44282 | 10753 ft | 330 kts | 187° |
| 2026-05-07 20:14 | 29.66032 | 106.43994 | 10542 ft | 328 kts | 187° |
| 2026-05-07 20:14 | 29.63765 | 106.43709 | 10333 ft | 326 kts | 187° |
| 2026-05-07 20:14 | 29.61510 | 106.43424 | 10094 ft | 326 kts | 187° |
| 2026-05-07 20:14 | 29.59266 | 106.43139 | 9982 ft | 320 kts | 187° |
| 2026-05-07 20:15 | 29.57082 | 106.42864 | 9918 ft | 312 kts | 187° |
| 2026-05-07 20:15 | 29.54947 | 106.42595 | 9846 ft | 305 kts | 187° |
| 2026-05-07 20:15 | 29.52859 | 106.42333 | 9789 ft | 298 kts | 187° |
| 2026-05-07 20:15 | 29.50822 | 106.42077 | 9750 ft | 291 kts | 187° |
| 2026-05-07 20:16 | 29.48829 | 106.41825 | 9697 ft | 284 kts | 187° |
| 2026-05-07 20:16 | 29.46891 | 106.41581 | 9640 ft | 277 kts | 187° |
| 2026-05-07 20:16 | 29.45016 | 106.41380 | 9556 ft | 267 kts | 179° |
| 2026-05-07 20:16 | 29.43250 | 106.41876 | 9411 ft | 262 kts | 150° |
| 2026-05-07 20:17 | 29.41910 | 106.43227 | 9248 ft | 252 kts | 128° |
| 2026-05-07 20:17 | 29.41075 | 106.44939 | 8991 ft | 244 kts | 111° |
| 2026-05-07 20:17 | 29.40569 | 106.46786 | 8682 ft | 237 kts | 108° |
| 2026-05-07 20:17 | 29.40121 | 106.48576 | 8369 ft | 232 kts | 108° |
| 2026-05-07 20:18 | 29.39676 | 106.50329 | 8085 ft | 227 kts | 109° |
| 2026-05-07 20:18 | 29.39253 | 106.52051 | 7817 ft | 225 kts | 103° |
| 2026-05-07 20:18 | 29.39391 | 106.53833 | 7525 ft | 229 kts | 68° |
| 2026-05-07 20:18 | 29.40405 | 106.55214 | 7294 ft | 228 kts | 32° |
| 2026-05-07 20:19 | 29.41846 | 106.55897 | 7017 ft | 221 kts | 18° |
| 2026-05-07 20:19 | 29.43287 | 106.56409 | 6746 ft | 212 kts | 17° |
| 2026-05-07 20:19 | 29.44669 | 106.56886 | 6534 ft | 202 kts | 17° |
| 2026-05-07 20:19 | 29.46006 | 106.57346 | 6266 ft | 200 kts | 18° |
| 2026-05-07 20:20 | 29.47350 | 106.57807 | 6047 ft | 202 kts | 18° |
| 2026-05-07 20:20 | 29.48706 | 106.58271 | 5819 ft | 205 kts | 18° |
| 2026-05-07 20:20 | 29.50076 | 106.58743 | 5569 ft | 205 kts | 18° |
| 2026-05-07 20:20 | 29.51427 | 106.59211 | 5347 ft | 200 kts | 18° |
| 2026-05-07 20:21 | 29.52754 | 106.59670 | 5102 ft | 198 kts | 18° |
| 2026-05-07 20:21 | 29.54070 | 106.60125 | 4867 ft | 197 kts | 19° |
| 2026-05-07 20:21 | 29.55378 | 106.60578 | 4611 ft | 195 kts | 18° |
| 2026-05-07 20:21 | 29.56661 | 106.61021 | 4352 ft | 194 kts | 18° |
| 2026-05-07 20:22 | 29.57960 | 106.61471 | 4083 ft | 191 kts | 18° |
| 2026-05-07 20:22 | 29.59204 | 106.61901 | 3873 ft | 187 kts | 18° |
| 2026-05-07 20:22 | 29.60457 | 106.62335 | 3620 ft | 187 kts | 19° |
| 2026-05-07 20:22 | 29.61652 | 106.62747 | 3397 ft | 173 kts | 19° |
| 2026-05-07 20:23 | 29.62765 | 106.63133 | 3154 ft | 162 kts | 20° |
| 2026-05-07 20:23 | 29.63813 | 106.63495 | 2939 ft | 154 kts | 19° |
| 2026-05-07 20:23 | 29.64863 | 106.63860 | 2763 ft | 161 kts | 19° |
| 2026-05-07 20:23 | 29.65936 | 106.64233 | 2536 ft | 161 kts | 19° |
| 2026-05-07 20:24 | 29.66989 | 106.64591 | 2267 ft | 154 kts | 18° |
| 2026-05-07 20:24 | 29.67984 | 106.64923 | 2096 ft | 149 kts | 18° |
| 2026-05-07 20:24 | 29.68978 | 106.65276 | 1913 ft | 150 kts | 18° |
| 2026-05-07 20:24 | 29.69985 | 106.65633 | 1730 ft | 153 kts | 17° |
| 2026-05-07 20:25 | 29.71006 | 106.65990 | 1497 ft | 153 kts | 17° |
| 2026-05-07 20:25 | 29.72015 | 106.66342 | 1348 ft | 147 kts | 17° |
| 2026-05-07 20:25 | 29.72891 | 106.66648 | 1333 ft | 111 kts | 17° |
| 2026-05-07 20:25 | 29.73484 | 106.66850 | 1324 ft | 67 kts | 17° |
| 2026-05-07 20:26 | 29.73879 | 106.66986 | 1322 ft | 36 kts | 17° |
| 2026-05-07 20:26 | 29.74008 | 106.67008 | 1322 ft | 12 kts | 335° |
| 2026-05-07 20:26 | 29.74047 | 106.66927 | 1322 ft | 12 kts | 286° |
| 2026-05-07 20:26 | 29.74071 | 106.66836 | 1323 ft | 12 kts | 287° |
| 2026-05-07 20:27 | 29.74063 | 106.66748 | 1324 ft | 12 kts | 225° |
| 2026-05-07 20:27 | 29.73985 | 106.66715 | 1325 ft | 12 kts | 197° |
| 2026-05-07 20:27 | 29.73906 | 106.66688 | 1325 ft | 12 kts | 196° |
| 2026-05-07 20:27 | 29.73826 | 106.66662 | 1326 ft | 12 kts | 196° |
| 2026-05-07 20:28 | 29.73745 | 106.66635 | 1326 ft | 12 kts | 196° |
| 2026-05-07 20:28 | 29.73667 | 106.66608 | 1327 ft | 12 kts | 200° |
| 2026-05-07 20:28 | 29.73629 | 106.66531 | 1329 ft | 12 kts | 272° |
| 2026-05-07 20:28 | 29.73648 | 106.66438 | 1331 ft | 12 kts | 284° |
| 2026-05-07 20:29 | 29.73667 | 106.66345 | 1333 ft | 12 kts | 284° |
| 2026-05-07 20:29 | 29.73693 | 106.66255 | 1335 ft | 12 kts | 291° |
| 2026-05-07 20:29 | 29.73723 | 106.66165 | 1338 ft | 12 kts | 291° |
| 2026-05-07 20:29 | 29.73750 | 106.66075 | 1345 ft | 12 kts | 283° |
| 2026-05-07 20:30 | 29.73770 | 106.65983 | 1346 ft | 12 kts | 283° |
| 2026-05-07 20:30 | 29.73792 | 106.65891 | 1350 ft | 12 kts | 286° |
| 2026-05-07 20:30 | 29.73816 | 106.65800 | 1350 ft | 12 kts | 287° |
| 2026-05-07 20:30 | 29.73843 | 106.65710 | 1354 ft | 12 kts | 294° |
| 2026-05-07 20:31 | 29.73915 | 106.65684 | 1352 ft | 12 kts | 11° |
| 2026-05-07 20:31 | 29.73995 | 106.65709 | 1351 ft | 12 kts | 17° |
| 2026-05-07 20:31 | 29.74064 | 106.65739 | 1351 ft | 8 kts | 43° |
| 2026-05-07 20:31 | 29.74068 | 106.65801 | 1348 ft | 8 kts | 104° |
| 2026-05-07 20:32 | 29.74060 | 106.65829 | 1348 ft | 0 kts | 108° |